PORTS® Data Listing: 9410670 Los Angeles Pier F, CA

CO-OPS RAW PORTS DATA

************************      PRELIMINARY DATA      ************************** 

     THIS RAW DATA HAS NOT BEEN SUBJECT TO THE NATIONAL OCEAN SERVICE'S        
     QUALITY CONTROL OR QUALITY ASSURANCE PROCEDURES AND DOES NOT MEET         
     THE CRITERIA AND STANDARDS OF OFFICIAL NATIONAL OCEAN SERVICE             
     DATA.  IT IS RELEASED FOR LIMITED PUBLIC USE AS PRELIMINARY DATA TO       
     BE USED ONLY WITH APPROPRIATE CAUTION.                                    

************************      PRELIMINARY DATA      ************************** 


       CD   -   Calendar date
       T    -   Time
       TZ   -   Timezone
       PW   -   Predicted water level (feet above MLLW)
       OW   -   Observed water level (feet above MLLW)
       WS   -   Wind speed (knots)
       WD   -   Wind direction (degrees true)
       WG   -   Wind gust (knots)
       AT   -   Air temperature (degrees farenheit)
       WT   -   Water temperature (degrees farenheit)
       AP   -   Air pressure (millibars)
       SA   -   Salinty (PSU - Practical Salinity Units)
       SG   -   Specific gravity
       RH   -   Relative humidity
       AG   -   Air gap (feet)
       VI   -   Visibility (nautical miles)

       ** NOTE **
       A variable that has its data fields filled with "9"s, indicates that
       data was not collected for that sample period.
       **********


STATION NAME: Pier F (9410670)
****************************************************************************************************
    CD       T    TZ    PW     OW    WS   WD   WG    AT    WT    AP    SA    SG     RH    AG   VI
****************************************************************************************************
2019/12/11 01:54 PST  -99.99 -99.99    3  343    4 -99.9 -99.9 -999.9 -9.9 -9.999 -99.9 -99.99 -9.99
2019/12/11 02:00 PST  -99.99 -99.99    3  324    3 -99.9 -99.9 -999.9 -9.9 -9.999 -99.9 -99.99 -9.99
2019/12/11 02:06 PST  -99.99 -99.99    4  320    4 -99.9 -99.9 -999.9 -9.9 -9.999 -99.9 -99.99 -9.99
2019/12/11 02:12 PST  -99.99 -99.99    3  324    4 -99.9 -99.9 -999.9 -9.9 -9.999 -99.9 -99.99 -9.99
2019/12/11 02:18 PST  -99.99 -99.99    1  337    3 -99.9 -99.9 -999.9 -9.9 -9.999 -99.9 -99.99 -9.99
2019/12/11 02:24 PST  -99.99 -99.99    2  342    2 -99.9 -99.9 -999.9 -9.9 -9.999 -99.9 -99.99 -9.99
2019/12/11 02:30 PST  -99.99 -99.99    2    5    3 -99.9 -99.9 -999.9 -9.9 -9.999 -99.9 -99.99 -9.99
2019/12/11 02:36 PST  -99.99 -99.99    2   20    2 -99.9 -99.9 -999.9 -9.9 -9.999 -99.9 -99.99 -9.99
2019/12/11 02:42 PST  -99.99 -99.99    2   24    2 -99.9 -99.9 -999.9 -9.9 -9.999 -99.9 -99.99 -9.99
2019/12/11 02:48 PST  -99.99 -99.99    3  351    3 -99.9 -99.9 -999.9 -9.9 -9.999 -99.9 -99.99 -9.99
2019/12/11 02:54 PST  -99.99 -99.99    2    5    3 -99.9 -99.9 -999.9 -9.9 -9.999 -99.9 -99.99 -9.99
2019/12/11 03:00 PST  -99.99 -99.99    2    9    2 -99.9 -99.9 -999.9 -9.9 -9.999 -99.9 -99.99 -9.99
2019/12/11 03:06 PST  -99.99 -99.99    2   19    3 -99.9 -99.9 -999.9 -9.9 -9.999 -99.9 -99.99 -9.99
2019/12/11 03:12 PST  -99.99 -99.99    3   20    4 -99.9 -99.9 -999.9 -9.9 -9.999 -99.9 -99.99 -9.99
2019/12/11 03:18 PST  -99.99 -99.99    4   16    5 -99.9 -99.9 -999.9 -9.9 -9.999 -99.9 -99.99 -9.99
2019/12/11 03:24 PST  -99.99 -99.99    4  360    5 -99.9 -99.9 -999.9 -9.9 -9.999 -99.9 -99.99 -9.99
2019/12/11 03:30 PST  -99.99 -99.99    3    9    4 -99.9 -99.9 -999.9 -9.9 -9.999 -99.9 -99.99 -9.99
2019/12/11 03:36 PST  -99.99 -99.99    2   30    4 -99.9 -99.9 -999.9 -9.9 -9.999 -99.9 -99.99 -9.99
2019/12/11 03:42 PST  -99.99 -99.99    3   10    4 -99.9 -99.9 -999.9 -9.9 -9.999 -99.9 -99.99 -9.99
2019/12/11 03:48 PST  -99.99 -99.99    4    3    5 -99.9 -99.9 -999.9 -9.9 -9.999 -99.9 -99.99 -9.99
2019/12/11 03:54 PST  -99.99 -99.99    4  357    5 -99.9 -99.9 -999.9 -9.9 -9.999 -99.9 -99.99 -9.99
2019/12/11 04:00 PST  -99.99 -99.99    4  358    5 -99.9 -99.9 -999.9 -9.9 -9.999 -99.9 -99.99 -9.99
2019/12/11 04:06 PST  -99.99 -99.99    4    7    5 -99.9 -99.9 -999.9 -9.9 -9.999 -99.9 -99.99 -9.99
2019/12/11 04:12 PST  -99.99 -99.99    2   20    4 -99.9 -99.9 -999.9 -9.9 -9.999 -99.9 -99.99 -9.99
2019/12/11 04:18 PST  -99.99 -99.99    2   28    3 -99.9 -99.9 -999.9 -9.9 -9.999 -99.9 -99.99 -9.99
2019/12/11 04:24 PST  -99.99 -99.99    4   14    5 -99.9 -99.9 -999.9 -9.9 -9.999 -99.9 -99.99 -9.99
2019/12/11 04:30 PST  -99.99 -99.99    3    2    4 -99.9 -99.9 -999.9 -9.9 -9.999 -99.9 -99.99 -9.99
2019/12/11 04:36 PST  -99.99 -99.99    4   20    5 -99.9 -99.9 -999.9 -9.9 -9.999 -99.9 -99.99 -9.99
2019/12/11 04:42 PST  -99.99 -99.99    4    9    6 -99.9 -99.9 -999.9 -9.9 -9.999 -99.9 -99.99 -9.99
2019/12/11 04:48 PST  -99.99 -99.99    2  358    4 -99.9 -99.9 -999.9 -9.9 -9.999 -99.9 -99.99 -9.99
2019/12/11 04:54 PST  -99.99 -99.99    2    6    3 -99.9 -99.9 -999.9 -9.9 -9.999 -99.9 -99.99 -9.99
2019/12/11 05:00 PST  -99.99 -99.99    1   17    2 -99.9 -99.9 -999.9 -9.9 -9.999 -99.9 -99.99 -9.99
2019/12/11 05:06 PST  -99.99 -99.99    3   14    4 -99.9 -99.9 -999.9 -9.9 -9.999 -99.9 -99.99 -9.99
2019/12/11 05:12 PST  -99.99 -99.99    2   36    3 -99.9 -99.9 -999.9 -9.9 -9.999 -99.9 -99.99 -9.99
2019/12/11 05:18 PST  -99.99 -99.99    1   33    3 -99.9 -99.9 -999.9 -9.9 -9.999 -99.9 -99.99 -9.99
2019/12/11 05:24 PST  -99.99 -99.99    1   45    3 -99.9 -99.9 -999.9 -9.9 -9.999 -99.9 -99.99 -9.99
2019/12/11 05:30 PST  -99.99 -99.99 -999 -999 -999 -99.9 -99.9 -999.9 -9.9 -9.999 -99.9 -99.99 -9.99
2019/12/11 05:36 PST  -99.99 -99.99    2   14    4 -99.9 -99.9 -999.9 -9.9 -9.999 -99.9 -99.99 -9.99
2019/12/11 05:42 PST  -99.99 -99.99    4   21    4 -99.9 -99.9 -999.9 -9.9 -9.999 -99.9 -99.99 -9.99
2019/12/11 05:48 PST  -99.99 -99.99    2   36    4 -99.9 -99.9 -999.9 -9.9 -9.999 -99.9 -99.99 -9.99
2019/12/11 05:54 PST  -99.99 -99.99    3   20    3 -99.9 -99.9 -999.9 -9.9 -9.999 -99.9 -99.99 -9.99
2019/12/11 06:00 PST  -99.99 -99.99    2   23    3 -99.9 -99.9 -999.9 -9.9 -9.999 -99.9 -99.99 -9.99
2019/12/11 06:06 PST  -99.99 -99.99    0   23    2 -99.9 -99.9 -999.9 -9.9 -9.999 -99.9 -99.99 -9.99
2019/12/11 06:12 PST  -99.99 -99.99    0   20    1 -99.9 -99.9 -999.9 -9.9 -9.999 -99.9 -99.99 -9.99
2019/12/11 06:18 PST  -99.99 -99.99    2   17    4 -99.9 -99.9 -999.9 -9.9 -9.999 -99.9 -99.99 -9.99
2019/12/11 06:24 PST  -99.99 -99.99    3   15    4 -99.9 -99.9 -999.9 -9.9 -9.999 -99.9 -99.99 -9.99
2019/12/11 06:30 PST  -99.99 -99.99    2   22    4 -99.9 -99.9 -999.9 -9.9 -9.999 -99.9 -99.99 -9.99
2019/12/11 06:36 PST  -99.99 -99.99    3   21    3 -99.9 -99.9 -999.9 -9.9 -9.999 -99.9 -99.99 -9.99
2019/12/11 06:42 PST  -99.99 -99.99    2   44    2 -99.9 -99.9 -999.9 -9.9 -9.999 -99.9 -99.99 -9.99
2019/12/11 06:48 PST  -99.99 -99.99    1   13    2 -99.9 -99.9 -999.9 -9.9 -9.999 -99.9 -99.99 -9.99
2019/12/11 06:54 PST  -99.99 -99.99    1    9    2 -99.9 -99.9 -999.9 -9.9 -9.999 -99.9 -99.99 -9.99
2019/12/11 07:00 PST  -99.99 -99.99    2    2    2 -99.9 -99.9 -999.9 -9.9 -9.999 -99.9 -99.99 -9.99
2019/12/11 07:06 PST  -99.99 -99.99    3  359    3 -99.9 -99.9 -999.9 -9.9 -9.999 -99.9 -99.99 -9.99
2019/12/11 07:12 PST  -99.99 -99.99    4  340    4 -99.9 -99.9 -999.9 -9.9 -9.999 -99.9 -99.99 -9.99
2019/12/11 07:18 PST  -99.99 -99.99    3  338    4 -99.9 -99.9 -999.9 -9.9 -9.999 -99.9 -99.99 -9.99
2019/12/11 07:24 PST  -99.99 -99.99    3  351    4 -99.9 -99.9 -999.9 -9.9 -9.999 -99.9 -99.99 -9.99
2019/12/11 07:30 PST  -99.99 -99.99    2  335    3 -99.9 -99.9 -999.9 -9.9 -9.999 -99.9 -99.99 -9.99
2019/12/11 07:36 PST  -99.99 -99.99    1  342    3 -99.9 -99.9 -999.9 -9.9 -9.999 -99.9 -99.99 -9.99
2019/12/11 07:42 PST  -99.99 -99.99    2    1    3 -99.9 -99.9 -999.9 -9.9 -9.999 -99.9 -99.99 -9.99
2019/12/11 07:48 PST  -99.99 -99.99    2   18    2 -99.9 -99.9 -999.9 -9.9 -9.999 -99.9 -99.99 -9.99
2019/12/11 07:54 PST  -99.99 -99.99    4  339    4 -99.9 -99.9 -999.9 -9.9 -9.999 -99.9 -99.99 -9.99
2019/12/11 08:00 PST  -99.99 -99.99    2    1    4 -99.9 -99.9 -999.9 -9.9 -9.999 -99.9 -99.99 -9.99
2019/12/11 08:06 PST  -99.99 -99.99    2   16    2 -99.9 -99.9 -999.9 -9.9 -9.999 -99.9 -99.99 -9.99
2019/12/11 08:12 PST  -99.99 -99.99    2    6    2 -99.9 -99.9 -999.9 -9.9 -9.999 -99.9 -99.99 -9.99
2019/12/11 08:18 PST  -99.99 -99.99    2  334    3 -99.9 -99.9 -999.9 -9.9 -9.999 -99.9 -99.99 -9.99
2019/12/11 08:24 PST  -99.99 -99.99    3  336    3 -99.9 -99.9 -999.9 -9.9 -9.999 -99.9 -99.99 -9.99
2019/12/11 08:30 PST  -99.99 -99.99    2  340    3 -99.9 -99.9 -999.9 -9.9 -9.999 -99.9 -99.99 -9.99
2019/12/11 08:36 PST  -99.99 -99.99    2  349    3 -99.9 -99.9 -999.9 -9.9 -9.999 -99.9 -99.99 -9.99
2019/12/11 08:42 PST  -99.99 -99.99    4  347    4 -99.9 -99.9 -999.9 -9.9 -9.999 -99.9 -99.99 -9.99
2019/12/11 08:48 PST  -99.99 -99.99    5  335    5 -99.9 -99.9 -999.9 -9.9 -9.999 -99.9 -99.99 -9.99
2019/12/11 08:54 PST  -99.99 -99.99    4  354    5 -99.9 -99.9 -999.9 -9.9 -9.999 -99.9 -99.99 -9.99
2019/12/11 09:00 PST  -99.99 -99.99    3    1    4 -99.9 -99.9 -999.9 -9.9 -9.999 -99.9 -99.99 -9.99
2019/12/11 09:06 PST  -99.99 -99.99    3  349    4 -99.9 -99.9 -999.9 -9.9 -9.999 -99.9 -99.99 -9.99
2019/12/11 09:12 PST  -99.99 -99.99    2    9    3 -99.9 -99.9 -999.9 -9.9 -9.999 -99.9 -99.99 -9.99
2019/12/11 09:18 PST  -99.99 -99.99    1   73    2 -99.9 -99.9 -999.9 -9.9 -9.999 -99.9 -99.99 -9.99
2019/12/11 09:24 PST  -99.99 -99.99    1   42    3 -99.9 -99.9 -999.9 -9.9 -9.999 -99.9 -99.99 -9.99
2019/12/11 09:30 PST  -99.99 -99.99    2   72    3 -99.9 -99.9 -999.9 -9.9 -9.999 -99.9 -99.99 -9.99
2019/12/11 09:36 PST  -99.99 -99.99    1   83    3 -99.9 -99.9 -999.9 -9.9 -9.999 -99.9 -99.99 -9.99
2019/12/11 09:42 PST  -99.99 -99.99    1  125    2 -99.9 -99.9 -999.9 -9.9 -9.999 -99.9 -99.99 -9.99
2019/12/11 09:48 PST  -99.99 -99.99    2   98    3 -99.9 -99.9 -999.9 -9.9 -9.999 -99.9 -99.99 -9.99
2019/12/11 09:54 PST  -99.99 -99.99    4  121    4 -99.9 -99.9 -999.9 -9.9 -9.999 -99.9 -99.99 -9.99
2019/12/11 10:00 PST  -99.99 -99.99    3  125    4 -99.9 -99.9 -999.9 -9.9 -9.999 -99.9 -99.99 -9.99
2019/12/11 10:06 PST  -99.99 -99.99    3  134    5 -99.9 -99.9 -999.9 -9.9 -9.999 -99.9 -99.99 -9.99
2019/12/11 10:12 PST  -99.99 -99.99    2  152    3 -99.9 -99.9 -999.9 -9.9 -9.999 -99.9 -99.99 -9.99
2019/12/11 10:18 PST  -99.99 -99.99    2  168    3 -99.9 -99.9 -999.9 -9.9 -9.999 -99.9 -99.99 -9.99
2019/12/11 10:24 PST  -99.99 -99.99    4  151    4 -99.9 -99.9 -999.9 -9.9 -9.999 -99.9 -99.99 -9.99
2019/12/11 10:30 PST  -99.99 -99.99    3  121    5 -99.9 -99.9 -999.9 -9.9 -9.999 -99.9 -99.99 -9.99
2019/12/11 10:36 PST  -99.99 -99.99    3  115    4 -99.9 -99.9 -999.9 -9.9 -9.999 -99.9 -99.99 -9.99
2019/12/11 10:42 PST  -99.99 -99.99    4  136    5 -99.9 -99.9 -999.9 -9.9 -9.999 -99.9 -99.99 -9.99
2019/12/11 10:48 PST  -99.99 -99.99    4  161    5 -99.9 -99.9 -999.9 -9.9 -9.999 -99.9 -99.99 -9.99
2019/12/11 10:54 PST  -99.99 -99.99    4  158    5 -99.9 -99.9 -999.9 -9.9 -9.999 -99.9 -99.99 -9.99
2019/12/11 11:00 PST  -99.99 -99.99    4  151    6 -99.9 -99.9 -999.9 -9.9 -9.999 -99.9 -99.99 -9.99
2019/12/11 11:06 PST  -99.99 -99.99    4  170    4 -99.9 -99.9 -999.9 -9.9 -9.999 -99.9 -99.99 -9.99
2019/12/11 11:12 PST  -99.99 -99.99    5  166    6 -99.9 -99.9 -999.9 -9.9 -9.999 -99.9 -99.99 -9.99
2019/12/11 11:18 PST  -99.99 -99.99    5  146    5 -99.9 -99.9 -999.9 -9.9 -9.999 -99.9 -99.99 -9.99
2019/12/11 11:24 PST  -99.99 -99.99    4  151    5 -99.9 -99.9 -999.9 -9.9 -9.999 -99.9 -99.99 -9.99
2019/12/11 11:30 PST  -99.99 -99.99    5  153    6 -99.9 -99.9 -999.9 -9.9 -9.999 -99.9 -99.99 -9.99
2019/12/11 11:36 PST  -99.99 -99.99    5  160    6 -99.9 -99.9 -999.9 -9.9 -9.999 -99.9 -99.99 -9.99
2019/12/11 11:42 PST  -99.99 -99.99    5  163    5 -99.9 -99.9 -999.9 -9.9 -9.999 -99.9 -99.99 -9.99
2019/12/11 11:48 PST  -99.99 -99.99    5  153    5 -99.9 -99.9 -999.9 -9.9 -9.999 -99.9 -99.99 -9.99
2019/12/11 11:54 PST  -99.99 -99.99    3  174    5 -99.9 -99.9 -999.9 -9.9 -9.999 -99.9 -99.99 -9.99
2019/12/11 12:00 PST  -99.99 -99.99    4  193    4 -99.9 -99.9 -999.9 -9.9 -9.999 -99.9 -99.99 -9.99
2019/12/11 12:06 PST  -99.99 -99.99    4  210    5 -99.9 -99.9 -999.9 -9.9 -9.999 -99.9 -99.99 -9.99
2019/12/11 12:12 PST  -99.99 -99.99    4  212    4 -99.9 -99.9 -999.9 -9.9 -9.999 -99.9 -99.99 -9.99
2019/12/11 12:18 PST  -99.99 -99.99    4  201    5 -99.9 -99.9 -999.9 -9.9 -9.999 -99.9 -99.99 -9.99
2019/12/11 12:24 PST  -99.99 -99.99    5  210    6 -99.9 -99.9 -999.9 -9.9 -9.999 -99.9 -99.99 -9.99
2019/12/11 12:30 PST  -99.99 -99.99    6  192    7 -99.9 -99.9 -999.9 -9.9 -9.999 -99.9 -99.99 -9.99
2019/12/11 12:36 PST  -99.99 -99.99    5  189    6 -99.9 -99.9 -999.9 -9.9 -9.999 -99.9 -99.99 -9.99
2019/12/11 12:42 PST  -99.99 -99.99    6  192    6 -99.9 -99.9 -999.9 -9.9 -9.999 -99.9 -99.99 -9.99
2019/12/11 12:48 PST  -99.99 -99.99    5  193    6 -99.9 -99.9 -999.9 -9.9 -9.999 -99.9 -99.99 -9.99
2019/12/11 12:54 PST  -99.99 -99.99    5  199    6 -99.9 -99.9 -999.9 -9.9 -9.999 -99.9 -99.99 -9.99
2019/12/11 13:00 PST  -99.99 -99.99    5  198    7 -99.9 -99.9 -999.9 -9.9 -9.999 -99.9 -99.99 -9.99
2019/12/11 13:06 PST  -99.99 -99.99    5  192    6 -99.9 -99.9 -999.9 -9.9 -9.999 -99.9 -99.99 -9.99
2019/12/11 13:12 PST  -99.99 -99.99    6  198    6 -99.9 -99.9 -999.9 -9.9 -9.999 -99.9 -99.99 -9.99
2019/12/11 13:18 PST  -99.99 -99.99    6  201    6 -99.9 -99.9 -999.9 -9.9 -9.999 -99.9 -99.99 -9.99
2019/12/11 13:24 PST  -99.99 -99.99    6  206    6 -99.9 -99.9 -999.9 -9.9 -9.999 -99.9 -99.99 -9.99
2019/12/11 13:30 PST  -99.99 -99.99    6  197    7 -99.9 -99.9 -999.9 -9.9 -9.999 -99.9 -99.99 -9.99
2019/12/11 13:36 PST  -99.99 -99.99    7  198    7 -99.9 -99.9 -999.9 -9.9 -9.999 -99.9 -99.99 -9.99
2019/12/11 13:42 PST  -99.99 -99.99    7  222    7 -99.9 -99.9 -999.9 -9.9 -9.999 -99.9 -99.99 -9.99
2019/12/11 13:48 PST  -99.99 -99.99    7  216    8 -99.9 -99.9 -999.9 -9.9 -9.999 -99.9 -99.99 -9.99
2019/12/11 13:54 PST  -99.99 -99.99    8  221    8 -99.9 -99.9 -999.9 -9.9 -9.999 -99.9 -99.99 -9.99
2019/12/11 14:00 PST  -99.99 -99.99    8  219    9 -99.9 -99.9 -999.9 -9.9 -9.999 -99.9 -99.99 -9.99
2019/12/11 14:06 PST  -99.99 -99.99    8  214    9 -99.9 -99.9 -999.9 -9.9 -9.999 -99.9 -99.99 -9.99
2019/12/11 14:12 PST  -99.99 -99.99    8  212    8 -99.9 -99.9 -999.9 -9.9 -9.999 -99.9 -99.99 -9.99
2019/12/11 14:18 PST  -99.99 -99.99    8  214    9 -99.9 -99.9 -999.9 -9.9 -9.999 -99.9 -99.99 -9.99
2019/12/11 14:24 PST  -99.99 -99.99    7  211    8 -99.9 -99.9 -999.9 -9.9 -9.999 -99.9 -99.99 -9.99
2019/12/11 14:30 PST  -99.99 -99.99    6  206    8 -99.9 -99.9 -999.9 -9.9 -9.999 -99.9 -99.99 -9.99
2019/12/11 14:36 PST  -99.99 -99.99    6  211    7 -99.9 -99.9 -999.9 -9.9 -9.999 -99.9 -99.99 -9.99
2019/12/11 14:42 PST  -99.99 -99.99    7  213    8 -99.9 -99.9 -999.9 -9.9 -9.999 -99.9 -99.99 -9.99
2019/12/11 14:48 PST  -99.99 -99.99    8  221    9 -99.9 -99.9 -999.9 -9.9 -9.999 -99.9 -99.99 -9.99
2019/12/11 14:54 PST  -99.99 -99.99    8  225    9 -99.9 -99.9 -999.9 -9.9 -9.999 -99.9 -99.99 -9.99
2019/12/11 15:00 PST  -99.99 -99.99    8  218    9 -99.9 -99.9 -999.9 -9.9 -9.999 -99.9 -99.99 -9.99
2019/12/11 15:06 PST  -99.99 -99.99    9  215    9 -99.9 -99.9 -999.9 -9.9 -9.999 -99.9 -99.99 -9.99
2019/12/11 15:12 PST  -99.99 -99.99    9  219   10 -99.9 -99.9 -999.9 -9.9 -9.999 -99.9 -99.99 -9.99
2019/12/11 15:18 PST  -99.99 -99.99    9  226   10 -99.9 -99.9 -999.9 -9.9 -9.999 -99.9 -99.99 -9.99
2019/12/11 15:24 PST  -99.99 -99.99    7  223    9 -99.9 -99.9 -999.9 -9.9 -9.999 -99.9 -99.99 -9.99
2019/12/11 15:30 PST  -99.99 -99.99    5  219    7 -99.9 -99.9 -999.9 -9.9 -9.999 -99.9 -99.99 -9.99
2019/12/11 15:36 PST  -99.99 -99.99    4  228    5 -99.9 -99.9 -999.9 -9.9 -9.999 -99.9 -99.99 -9.99
2019/12/11 15:42 PST  -99.99 -99.99    2  319    3 -99.9 -99.9 -999.9 -9.9 -9.999 -99.9 -99.99 -9.99
2019/12/11 15:48 PST  -99.99 -99.99    7  322    8 -99.9 -99.9 -999.9 -9.9 -9.999 -99.9 -99.99 -9.99
2019/12/11 15:54 PST  -99.99 -99.99    7  325   10 -99.9 -99.9 -999.9 -9.9 -9.999 -99.9 -99.99 -9.99
2019/12/11 16:00 PST  -99.99 -99.99    7  338    8 -99.9 -99.9 -999.9 -9.9 -9.999 -99.9 -99.99 -9.99
2019/12/11 16:06 PST  -99.99 -99.99    5  324    7 -99.9 -99.9 -999.9 -9.9 -9.999 -99.9 -99.99 -9.99
2019/12/11 16:12 PST  -99.99 -99.99    6  334    8 -99.9 -99.9 -999.9 -9.9 -9.999 -99.9 -99.99 -9.99
2019/12/11 16:18 PST  -99.99 -99.99    6  329    8 -99.9 -99.9 -999.9 -9.9 -9.999 -99.9 -99.99 -9.99
2019/12/11 16:24 PST  -99.99 -99.99    5  335    8 -99.9 -99.9 -999.9 -9.9 -9.999 -99.9 -99.99 -9.99
2019/12/11 16:30 PST  -99.99 -99.99    5  323    6 -99.9 -99.9 -999.9 -9.9 -9.999 -99.9 -99.99 -9.99
2019/12/11 16:36 PST  -99.99 -99.99    8  320    9 -99.9 -99.9 -999.9 -9.9 -9.999 -99.9 -99.99 -9.99
2019/12/11 16:42 PST  -99.99 -99.99 -999 -999 -999 -99.9 -99.9 -999.9 -9.9 -9.999 -99.9 -99.99 -9.99
2019/12/11 16:48 PST  -99.99 -99.99   10  326   11 -99.9 -99.9 -999.9 -9.9 -9.999 -99.9 -99.99 -9.99
2019/12/11 16:54 PST  -99.99 -99.99    8  333   10 -99.9 -99.9 -999.9 -9.9 -9.999 -99.9 -99.99 -9.99
2019/12/11 17:00 PST  -99.99 -99.99    9  321   10 -99.9 -99.9 -999.9 -9.9 -9.999 -99.9 -99.99 -9.99
2019/12/11 17:06 PST  -99.99 -99.99    9  321   12 -99.9 -99.9 -999.9 -9.9 -9.999 -99.9 -99.99 -9.99
2019/12/11 17:12 PST  -99.99 -99.99    9  323   11 -99.9 -99.9 -999.9 -9.9 -9.999 -99.9 -99.99 -9.99
2019/12/11 17:18 PST  -99.99 -99.99    9  319   11 -99.9 -99.9 -999.9 -9.9 -9.999 -99.9 -99.99 -9.99
2019/12/11 17:24 PST  -99.99 -99.99    9  325   10 -99.9 -99.9 -999.9 -9.9 -9.999 -99.9 -99.99 -9.99
2019/12/11 17:30 PST  -99.99 -99.99    5  337    8 -99.9 -99.9 -999.9 -9.9 -9.999 -99.9 -99.99 -9.99
2019/12/11 17:36 PST  -99.99 -99.99    4  334    6 -99.9 -99.9 -999.9 -9.9 -9.999 -99.9 -99.99 -9.99
2019/12/11 17:42 PST  -99.99 -99.99    3    0    5 -99.9 -99.9 -999.9 -9.9 -9.999 -99.9 -99.99 -9.99
2019/12/11 17:48 PST  -99.99 -99.99    3  349    4 -99.9 -99.9 -999.9 -9.9 -9.999 -99.9 -99.99 -9.99
2019/12/11 17:54 PST  -99.99 -99.99    0  346    3 -99.9 -99.9 -999.9 -9.9 -9.999 -99.9 -99.99 -9.99
2019/12/11 18:00 PST  -99.99 -99.99    0  343    1 -99.9 -99.9 -999.9 -9.9 -9.999 -99.9 -99.99 -9.99
2019/12/11 18:06 PST  -99.99 -99.99    1   54    2 -99.9 -99.9 -999.9 -9.9 -9.999 -99.9 -99.99 -9.99
2019/12/11 18:12 PST  -99.99 -99.99    1   99    2 -99.9 -99.9 -999.9 -9.9 -9.999 -99.9 -99.99 -9.99
2019/12/11 18:18 PST  -99.99 -99.99    2   86    3 -99.9 -99.9 -999.9 -9.9 -9.999 -99.9 -99.99 -9.99
2019/12/11 18:24 PST  -99.99 -99.99    0    0    2 -99.9 -99.9 -999.9 -9.9 -9.999 -99.9 -99.99 -9.99
2019/12/11 18:30 PST  -99.99 -99.99    0  194    2 -99.9 -99.9 -999.9 -9.9 -9.999 -99.9 -99.99 -9.99
2019/12/11 18:36 PST  -99.99 -99.99    2  227    2 -99.9 -99.9 -999.9 -9.9 -9.999 -99.9 -99.99 -9.99
2019/12/11 18:42 PST  -99.99 -99.99    3  232    3 -99.9 -99.9 -999.9 -9.9 -9.999 -99.9 -99.99 -9.99
2019/12/11 18:48 PST  -99.99 -99.99    4  214    4 -99.9 -99.9 -999.9 -9.9 -9.999 -99.9 -99.99 -9.99
2019/12/11 18:54 PST  -99.99 -99.99    2  195    4 -99.9 -99.9 -999.9 -9.9 -9.999 -99.9 -99.99 -9.99
2019/12/11 19:00 PST  -99.99 -99.99    1  170    2 -99.9 -99.9 -999.9 -9.9 -9.999 -99.9 -99.99 -9.99
2019/12/11 19:06 PST  -99.99 -99.99    2  183    2 -99.9 -99.9 -999.9 -9.9 -9.999 -99.9 -99.99 -9.99
2019/12/11 19:12 PST  -99.99 -99.99    1  210    2 -99.9 -99.9 -999.9 -9.9 -9.999 -99.9 -99.99 -9.99
2019/12/11 19:18 PST  -99.99 -99.99    0    0    2 -99.9 -99.9 -999.9 -9.9 -9.999 -99.9 -99.99 -9.99
2019/12/11 19:24 PST  -99.99 -99.99    0  212    1 -99.9 -99.9 -999.9 -9.9 -9.999 -99.9 -99.99 -9.99
2019/12/11 19:30 PST  -99.99 -99.99    1  150    1 -99.9 -99.9 -999.9 -9.9 -9.999 -99.9 -99.99 -9.99
2019/12/11 19:36 PST  -99.99 -99.99    1  150    2 -99.9 -99.9 -999.9 -9.9 -9.999 -99.9 -99.99 -9.99
2019/12/11 19:42 PST  -99.99 -99.99    0  120    1 -99.9 -99.9 -999.9 -9.9 -9.999 -99.9 -99.99 -9.99
2019/12/11 19:48 PST  -99.99 -99.99    2  147    3 -99.9 -99.9 -999.9 -9.9 -9.999 -99.9 -99.99 -9.99
2019/12/11 19:54 PST  -99.99 -99.99    0  179    2 -99.9 -99.9 -999.9 -9.9 -9.999 -99.9 -99.99 -9.99
2019/12/11 20:00 PST  -99.99 -99.99    0    0    0 -99.9 -99.9 -999.9 -9.9 -9.999 -99.9 -99.99 -9.99
2019/12/11 20:06 PST  -99.99 -99.99    1   89    1 -99.9 -99.9 -999.9 -9.9 -9.999 -99.9 -99.99 -9.99
2019/12/11 20:12 PST  -99.99 -99.99    0  327    1 -99.9 -99.9 -999.9 -9.9 -9.999 -99.9 -99.99 -9.99
2019/12/11 20:18 PST  -99.99 -99.99    2   74    3 -99.9 -99.9 -999.9 -9.9 -9.999 -99.9 -99.99 -9.99
2019/12/11 20:24 PST  -99.99 -99.99    1  208    2 -99.9 -99.9 -999.9 -9.9 -9.999 -99.9 -99.99 -9.99
2019/12/11 20:30 PST  -99.99 -99.99    1  139    1 -99.9 -99.9 -999.9 -9.9 -9.999 -99.9 -99.99 -9.99
2019/12/11 20:36 PST  -99.99 -99.99    0  279    2 -99.9 -99.9 -999.9 -9.9 -9.999 -99.9 -99.99 -9.99
2019/12/11 20:42 PST  -99.99 -99.99    1  277    1 -99.9 -99.9 -999.9 -9.9 -9.999 -99.9 -99.99 -9.99
2019/12/11 20:48 PST  -99.99 -99.99    0  270    1 -99.9 -99.9 -999.9 -9.9 -9.999 -99.9 -99.99 -9.99
2019/12/11 20:54 PST  -99.99 -99.99    0    0    2 -99.9 -99.9 -999.9 -9.9 -9.999 -99.9 -99.99 -9.99
2019/12/11 21:00 PST  -99.99 -99.99    3  106    3 -99.9 -99.9 -999.9 -9.9 -9.999 -99.9 -99.99 -9.99
2019/12/11 21:06 PST  -99.99 -99.99    3   98    4 -99.9 -99.9 -999.9 -9.9 -9.999 -99.9 -99.99 -9.99
2019/12/11 21:12 PST  -99.99 -99.99    2   94    3 -99.9 -99.9 -999.9 -9.9 -9.999 -99.9 -99.99 -9.99
2019/12/11 21:18 PST  -99.99 -99.99    4   76    4 -99.9 -99.9 -999.9 -9.9 -9.999 -99.9 -99.99 -9.99
2019/12/11 21:24 PST  -99.99 -99.99    4   76    4 -99.9 -99.9 -999.9 -9.9 -9.999 -99.9 -99.99 -9.99
2019/12/11 21:30 PST  -99.99 -99.99    5   81    5 -99.9 -99.9 -999.9 -9.9 -9.999 -99.9 -99.99 -9.99
2019/12/11 21:36 PST  -99.99 -99.99    5   91    6 -99.9 -99.9 -999.9 -9.9 -9.999 -99.9 -99.99 -9.99
2019/12/11 21:42 PST  -99.99 -99.99    5  101    5 -99.9 -99.9 -999.9 -9.9 -9.999 -99.9 -99.99 -9.99
2019/12/11 21:48 PST  -99.99 -99.99    3   78    5 -99.9 -99.9 -999.9 -9.9 -9.999 -99.9 -99.99 -9.99
2019/12/11 21:54 PST  -99.99 -99.99    3   75    3 -99.9 -99.9 -999.9 -9.9 -9.999 -99.9 -99.99 -9.99
2019/12/11 22:00 PST  -99.99 -99.99    3   81    4 -99.9 -99.9 -999.9 -9.9 -9.999 -99.9 -99.99 -9.99
2019/12/11 22:06 PST  -99.99 -99.99    4   90    4 -99.9 -99.9 -999.9 -9.9 -9.999 -99.9 -99.99 -9.99
2019/12/11 22:12 PST  -99.99 -99.99    4   98    4 -99.9 -99.9 -999.9 -9.9 -9.999 -99.9 -99.99 -9.99
2019/12/11 22:18 PST  -99.99 -99.99    4   89    4 -99.9 -99.9 -999.9 -9.9 -9.999 -99.9 -99.99 -9.99
2019/12/11 22:24 PST  -99.99 -99.99    4   89    4 -99.9 -99.9 -999.9 -9.9 -9.999 -99.9 -99.99 -9.99
2019/12/11 22:30 PST  -99.99 -99.99    4   67    5 -99.9 -99.9 -999.9 -9.9 -9.999 -99.9 -99.99 -9.99
2019/12/11 22:36 PST  -99.99 -99.99    4   77    6 -99.9 -99.9 -999.9 -9.9 -9.999 -99.9 -99.99 -9.99
2019/12/11 22:42 PST  -99.99 -99.99    4   90    5 -99.9 -99.9 -999.9 -9.9 -9.999 -99.9 -99.99 -9.99
2019/12/11 22:48 PST  -99.99 -99.99    4   96    5 -99.9 -99.9 -999.9 -9.9 -9.999 -99.9 -99.99 -9.99
2019/12/11 22:54 PST  -99.99 -99.99    4   88    5 -99.9 -99.9 -999.9 -9.9 -9.999 -99.9 -99.99 -9.99
2019/12/11 23:00 PST  -99.99 -99.99    5   97    6 -99.9 -99.9 -999.9 -9.9 -9.999 -99.9 -99.99 -9.99
2019/12/11 23:06 PST  -99.99 -99.99    5   98    7 -99.9 -99.9 -999.9 -9.9 -9.999 -99.9 -99.99 -9.99
2019/12/11 23:12 PST  -99.99 -99.99    4   79    6 -99.9 -99.9 -999.9 -9.9 -9.999 -99.9 -99.99 -9.99
2019/12/11 23:18 PST  -99.99 -99.99    5   77    6 -99.9 -99.9 -999.9 -9.9 -9.999 -99.9 -99.99 -9.99
2019/12/11 23:24 PST  -99.99 -99.99    4   91    5 -99.9 -99.9 -999.9 -9.9 -9.999 -99.9 -99.99 -9.99
2019/12/11 23:30 PST  -99.99 -99.99    3   86    5 -99.9 -99.9 -999.9 -9.9 -9.999 -99.9 -99.99 -9.99
2019/12/11 23:36 PST  -99.99 -99.99    4   85    5 -99.9 -99.9 -999.9 -9.9 -9.999 -99.9 -99.99 -9.99
2019/12/11 23:42 PST  -99.99 -99.99    5   92    6 -99.9 -99.9 -999.9 -9.9 -9.999 -99.9 -99.99 -9.99
2019/12/11 23:48 PST  -99.99 -99.99    4   69    5 -99.9 -99.9 -999.9 -9.9 -9.999 -99.9 -99.99 -9.99
2019/12/11 23:54 PST  -99.99 -99.99    3   86    5 -99.9 -99.9 -999.9 -9.9 -9.999 -99.9 -99.99 -9.99
2019/12/12 00:00 PST  -99.99 -99.99    4   78    5 -99.9 -99.9 -999.9 -9.9 -9.999 -99.9 -99.99 -9.99
2019/12/12 00:06 PST  -99.99 -99.99    4   95    4 -99.9 -99.9 -999.9 -9.9 -9.999 -99.9 -99.99 -9.99
2019/12/12 00:12 PST  -99.99 -99.99    3   81    4 -99.9 -99.9 -999.9 -9.9 -9.999 -99.9 -99.99 -9.99
2019/12/12 00:18 PST  -99.99 -99.99    4   84    4 -99.9 -99.9 -999.9 -9.9 -9.999 -99.9 -99.99 -9.99
2019/12/12 00:24 PST  -99.99 -99.99    4   83    5 -99.9 -99.9 -999.9 -9.9 -9.999 -99.9 -99.99 -9.99
2019/12/12 00:30 PST  -99.99 -99.99    4   76    5 -99.9 -99.9 -999.9 -9.9 -9.999 -99.9 -99.99 -9.99
2019/12/12 00:36 PST  -99.99 -99.99    3   78    4 -99.9 -99.9 -999.9 -9.9 -9.999 -99.9 -99.99 -9.99
2019/12/12 00:42 PST  -99.99 -99.99    4   83    5 -99.9 -99.9 -999.9 -9.9 -9.999 -99.9 -99.99 -9.99
2019/12/12 00:48 PST  -99.99 -99.99    3   84    4 -99.9 -99.9 -999.9 -9.9 -9.999 -99.9 -99.99 -9.99
2019/12/12 00:54 PST  -99.99 -99.99    3   70    4 -99.9 -99.9 -999.9 -9.9 -9.999 -99.9 -99.99 -9.99
2019/12/12 01:00 PST  -99.99 -99.99    3   73    4 -99.9 -99.9 -999.9 -9.9 -9.999 -99.9 -99.99 -9.99
2019/12/12 01:06 PST  -99.99 -99.99    3   80    5 -99.9 -99.9 -999.9 -9.9 -9.999 -99.9 -99.99 -9.99
2019/12/12 01:12 PST  -99.99 -99.99    3   64    5 -99.9 -99.9 -999.9 -9.9 -9.999 -99.9 -99.99 -9.99
2019/12/12 01:18 PST  -99.99 -99.99    4   72    4 -99.9 -99.9 -999.9 -9.9 -9.999 -99.9 -99.99 -9.99
2019/12/12 01:24 PST  -99.99 -99.99    4   83    5 -99.9 -99.9 -999.9 -9.9 -9.999 -99.9 -99.99 -9.99
2019/12/12 01:30 PST  -99.99 -99.99    3   75    4 -99.9 -99.9 -999.9 -9.9 -9.999 -99.9 -99.99 -9.99
2019/12/12 01:36 PST  -99.99 -99.99    3   73    4 -99.9 -99.9 -999.9 -9.9 -9.999 -99.9 -99.99 -9.99
2019/12/12 01:42 PST  -99.99 -99.99    3   89    4 -99.9 -99.9 -999.9 -9.9 -9.999 -99.9 -99.99 -9.99
2019/12/12 01:48 PST  -99.99 -99.99    4   84    5 -99.9 -99.9 -999.9 -9.9 -9.999 -99.9 -99.99 -9.99
2019/12/12 01:54 PST  -99.99 -99.99    1   62    5 -99.9 -99.9 -999.9 -9.9 -9.999 -99.9 -99.99 -9.99
2019/12/12 02:00 PST  -99.99 -99.99    2   78    3 -99.9 -99.9 -999.9 -9.9 -9.999 -99.9 -99.99 -9.99
2019/12/12 02:06 PST  -99.99 -99.99    2   16    3 -99.9 -99.9 -999.9 -9.9 -9.999 -99.9 -99.99 -9.99
2019/12/12 02:12 PST  -99.99 -99.99    3   57    3 -99.9 -99.9 -999.9 -9.9 -9.999 -99.9 -99.99 -9.99
2019/12/12 02:18 PST  -99.99 -99.99    3   17    3 -99.9 -99.9 -999.9 -9.9 -9.999 -99.9 -99.99 -9.99
2019/12/12 02:24 PST  -99.99 -99.99    1   43    3 -99.9 -99.9 -999.9 -9.9 -9.999 -99.9 -99.99 -9.99
2019/12/12 02:30 PST  -99.99 -99.99    2   63    4 -99.9 -99.9 -999.9 -9.9 -9.999 -99.9 -99.99 -9.99
2019/12/12 02:36 PST  -99.99 -99.99    1   34    4 -99.9 -99.9 -999.9 -9.9 -9.999 -99.9 -99.99 -9.99
2019/12/12 02:42 PST  -99.99 -99.99    3    9    4 -99.9 -99.9 -999.9 -9.9 -9.999 -99.9 -99.99 -9.99
2019/12/12 02:48 PST  -99.99 -99.99    2   21    3 -99.9 -99.9 -999.9 -9.9 -9.999 -99.9 -99.99 -9.99
2019/12/12 02:54 PST  -99.99 -99.99    3   16    3 -99.9 -99.9 -999.9 -9.9 -9.999 -99.9 -99.99 -9.99
2019/12/12 03:00 PST  -99.99 -99.99    3   10    3 -99.9 -99.9 -999.9 -9.9 -9.999 -99.9 -99.99 -9.99
2019/12/12 03:06 PST  -99.99 -99.99    3    2    3 -99.9 -99.9 -999.9 -9.9 -9.999 -99.9 -99.99 -9.99
2019/12/12 03:12 PST  -99.99 -99.99    2  337    3 -99.9 -99.9 -999.9 -9.9 -9.999 -99.9 -99.99 -9.99
2019/12/12 03:18 PST  -99.99 -99.99    2  331    3 -99.9 -99.9 -999.9 -9.9 -9.999 -99.9 -99.99 -9.99
2019/12/12 03:24 PST  -99.99 -99.99    3  355    3 -99.9 -99.9 -999.9 -9.9 -9.999 -99.9 -99.99 -9.99
2019/12/12 03:30 PST  -99.99 -99.99 -999 -999 -999 -99.9 -99.9 -999.9 -9.9 -9.999 -99.9 -99.99 -9.99
2019/12/12 03:36 PST  -99.99 -99.99 -999 -999 -999 -99.9 -99.9 -999.9 -9.9 -9.999 -99.9 -99.99 -9.99
2019/12/12 03:42 PST  -99.99 -99.99    3  354    4 -99.9 -99.9 -999.9 -9.9 -9.999 -99.9 -99.99 -9.99
2019/12/12 03:48 PST  -99.99 -99.99    2  339    3 -99.9 -99.9 -999.9 -9.9 -9.999 -99.9 -99.99 -9.99
2019/12/12 03:54 PST  -99.99 -99.99    3  358    4 -99.9 -99.9 -999.9 -9.9 -9.999 -99.9 -99.99 -9.99
2019/12/12 04:00 PST  -99.99 -99.99    3  358    4 -99.9 -99.9 -999.9 -9.9 -9.999 -99.9 -99.99 -9.99
2019/12/12 04:06 PST  -99.99 -99.99    3    5    4 -99.9 -99.9 -999.9 -9.9 -9.999 -99.9 -99.99 -9.99
2019/12/12 04:12 PST  -99.99 -99.99    2   10    3 -99.9 -99.9 -999.9 -9.9 -9.999 -99.9 -99.99 -9.99
2019/12/12 04:18 PST  -99.99 -99.99    2    1    2 -99.9 -99.9 -999.9 -9.9 -9.999 -99.9 -99.99 -9.99
2019/12/12 04:24 PST  -99.99 -99.99    1   19    2 -99.9 -99.9 -999.9 -9.9 -9.999 -99.9 -99.99 -9.99
2019/12/12 04:30 PST  -99.99 -99.99    3    4    3 -99.9 -99.9 -999.9 -9.9 -9.999 -99.9 -99.99 -9.99
2019/12/12 04:36 PST  -99.99 -99.99    3   13    3 -99.9 -99.9 -999.9 -9.9 -9.999 -99.9 -99.99 -9.99
2019/12/12 04:42 PST  -99.99 -99.99    2   26    3 -99.9 -99.9 -999.9 -9.9 -9.999 -99.9 -99.99 -9.99
2019/12/12 04:48 PST  -99.99 -99.99    1   36    2 -99.9 -99.9 -999.9 -9.9 -9.999 -99.9 -99.99 -9.99
2019/12/12 04:54 PST  -99.99 -99.99    2   73    3 -99.9 -99.9 -999.9 -9.9 -9.999 -99.9 -99.99 -9.99
2019/12/12 05:00 PST  -99.99 -99.99    2   38    2 -99.9 -99.9 -999.9 -9.9 -9.999 -99.9 -99.99 -9.99
2019/12/12 05:06 PST  -99.99 -99.99    2   34    2 -99.9 -99.9 -999.9 -9.9 -9.999 -99.9 -99.99 -9.99
2019/12/12 05:12 PST  -99.99 -99.99    2   39    3 -99.9 -99.9 -999.9 -9.9 -9.999 -99.9 -99.99 -9.99
2019/12/12 05:18 PST  -99.99 -99.99    2   56    3 -99.9 -99.9 -999.9 -9.9 -9.999 -99.9 -99.99 -9.99
2019/12/12 05:24 PST  -99.99 -99.99    1   14    3 -99.9 -99.9 -999.9 -9.9 -9.999 -99.9 -99.99 -9.99
2019/12/12 05:30 PST  -99.99 -99.99    0    6    1 -99.9 -99.9 -999.9 -9.9 -9.999 -99.9 -99.99 -9.99
2019/12/12 05:36 PST  -99.99 -99.99    0   26    1 -99.9 -99.9 -999.9 -9.9 -9.999 -99.9 -99.99 -9.99
2019/12/12 05:42 PST  -99.99 -99.99    0    0    0 -99.9 -99.9 -999.9 -9.9 -9.999 -99.9 -99.99 -9.99
2019/12/12 05:48 PST  -99.99 -99.99    0  310    0 -99.9 -99.9 -999.9 -9.9 -9.999 -99.9 -99.99 -9.99
2019/12/12 05:54 PST  -99.99 -99.99    0  349    1 -99.9 -99.9 -999.9 -9.9 -9.999 -99.9 -99.99 -9.99
2019/12/12 06:00 PST  -99.99 -99.99    0  343    1 -99.9 -99.9 -999.9 -9.9 -9.999 -99.9 -99.99 -9.99
2019/12/12 06:06 PST  -99.99 -99.99    0  344    0 -99.9 -99.9 -999.9 -9.9 -9.999 -99.9 -99.99 -9.99
2019/12/12 06:12 PST  -99.99 -99.99    1   79    2 -99.9 -99.9 -999.9 -9.9 -9.999 -99.9 -99.99 -9.99
2019/12/12 06:18 PST  -99.99 -99.99    0   63    1 -99.9 -99.9 -999.9 -9.9 -9.999 -99.9 -99.99 -9.99
2019/12/12 06:24 PST  -99.99 -99.99    0   66    2 -99.9 -99.9 -999.9 -9.9 -9.999 -99.9 -99.99 -9.99
2019/12/12 06:30 PST  -99.99 -99.99    1   65    2 -99.9 -99.9 -999.9 -9.9 -9.999 -99.9 -99.99 -9.99
2019/12/12 06:36 PST  -99.99 -99.99    1  360    2 -99.9 -99.9 -999.9 -9.9 -9.999 -99.9 -99.99 -9.99
2019/12/12 06:42 PST  -99.99 -99.99    1  266    1 -99.9 -99.9 -999.9 -9.9 -9.999 -99.9 -99.99 -9.99
2019/12/12 06:48 PST  -99.99 -99.99    0  315    1 -99.9 -99.9 -999.9 -9.9 -9.999 -99.9 -99.99 -9.99
2019/12/12 06:54 PST  -99.99 -99.99    1  336    1 -99.9 -99.9 -999.9 -9.9 -9.999 -99.9 -99.99 -9.99
2019/12/12 07:00 PST  -99.99 -99.99    1  333    1 -99.9 -99.9 -999.9 -9.9 -9.999 -99.9 -99.99 -9.99
2019/12/12 07:06 PST  -99.99 -99.99    2  328    2 -99.9 -99.9 -999.9 -9.9 -9.999 -99.9 -99.99 -9.99
2019/12/12 07:12 PST  -99.99 -99.99    3  335    3 -99.9 -99.9 -999.9 -9.9 -9.999 -99.9 -99.99 -9.99
2019/12/12 07:18 PST  -99.99 -99.99    4  356    4 -99.9 -99.9 -999.9 -9.9 -9.999 -99.9 -99.99 -9.99
2019/12/12 07:24 PST  -99.99 -99.99    2    3    5 -99.9 -99.9 -999.9 -9.9 -9.999 -99.9 -99.99 -9.99
2019/12/12 07:30 PST  -99.99 -99.99    3    4    4 -99.9 -99.9 -999.9 -9.9 -9.999 -99.9 -99.99 -9.99
2019/12/12 07:36 PST  -99.99 -99.99    2   14    4 -99.9 -99.9 -999.9 -9.9 -9.999 -99.9 -99.99 -9.99
2019/12/12 07:42 PST  -99.99 -99.99    1   33    2 -99.9 -99.9 -999.9 -9.9 -9.999 -99.9 -99.99 -9.99
2019/12/12 07:48 PST  -99.99 -99.99    0   57    1 -99.9 -99.9 -999.9 -9.9 -9.999 -99.9 -99.99 -9.99
2019/12/12 07:54 PST  -99.99 -99.99    1   45    2 -99.9 -99.9 -999.9 -9.9 -9.999 -99.9 -99.99 -9.99
2019/12/12 08:00 PST  -99.99 -99.99    0   88    2 -99.9 -99.9 -999.9 -9.9 -9.999 -99.9 -99.99 -9.99
2019/12/12 08:06 PST  -99.99 -99.99    0   71    1 -99.9 -99.9 -999.9 -9.9 -9.999 -99.9 -99.99 -9.99
2019/12/12 08:12 PST  -99.99 -99.99    0    0    0 -99.9 -99.9 -999.9 -9.9 -9.999 -99.9 -99.99 -9.99
2019/12/12 08:18 PST  -99.99 -99.99    1   93    1 -99.9 -99.9 -999.9 -9.9 -9.999 -99.9 -99.99 -9.99
2019/12/12 08:24 PST  -99.99 -99.99    0   43    2 -99.9 -99.9 -999.9 -9.9 -9.999 -99.9 -99.99 -9.99
2019/12/12 08:30 PST  -99.99 -99.99    1   15    2 -99.9 -99.9 -999.9 -9.9 -9.999 -99.9 -99.99 -9.99
2019/12/12 08:36 PST  -99.99 -99.99    0  114    2 -99.9 -99.9 -999.9 -9.9 -9.999 -99.9 -99.99 -9.99
2019/12/12 08:42 PST  -99.99 -99.99    1  114    2 -99.9 -99.9 -999.9 -9.9 -9.999 -99.9 -99.99 -9.99
2019/12/12 08:48 PST  -99.99 -99.99    2   89    3 -99.9 -99.9 -999.9 -9.9 -9.999 -99.9 -99.99 -9.99
2019/12/12 08:54 PST  -99.99 -99.99    2  119    3 -99.9 -99.9 -999.9 -9.9 -9.999 -99.9 -99.99 -9.99
2019/12/12 09:00 PST  -99.99 -99.99    2  145    3 -99.9 -99.9 -999.9 -9.9 -9.999 -99.9 -99.99 -9.99
2019/12/12 09:06 PST  -99.99 -99.99    2  132    3 -99.9 -99.9 -999.9 -9.9 -9.999 -99.9 -99.99 -9.99
2019/12/12 09:12 PST  -99.99 -99.99    2  100    2 -99.9 -99.9 -999.9 -9.9 -9.999 -99.9 -99.99 -9.99
2019/12/12 09:18 PST  -99.99 -99.99    1   96    2 -99.9 -99.9 -999.9 -9.9 -9.999 -99.9 -99.99 -9.99
2019/12/12 09:24 PST  -99.99 -99.99    1  102    2 -99.9 -99.9 -999.9 -9.9 -9.999 -99.9 -99.99 -9.99
2019/12/12 09:30 PST  -99.99 -99.99    0  113    2 -99.9 -99.9 -999.9 -9.9 -9.999 -99.9 -99.99 -9.99
2019/12/12 09:36 PST  -99.99 -99.99    2  158    3 -99.9 -99.9 -999.9 -9.9 -9.999 -99.9 -99.99 -9.99
2019/12/12 09:42 PST  -99.99 -99.99    3  155    4 -99.9 -99.9 -999.9 -9.9 -9.999 -99.9 -99.99 -9.99
2019/12/12 09:48 PST  -99.99 -99.99    2  154    3 -99.9 -99.9 -999.9 -9.9 -9.999 -99.9 -99.99 -9.99
2019/12/12 09:54 PST  -99.99 -99.99    2  152    3 -99.9 -99.9 -999.9 -9.9 -9.999 -99.9 -99.99 -9.99
2019/12/12 10:00 PST  -99.99 -99.99    3  164    4 -99.9 -99.9 -999.9 -9.9 -9.999 -99.9 -99.99 -9.99
2019/12/12 10:06 PST  -99.99 -99.99    3  178    3 -99.9 -99.9 -999.9 -9.9 -9.999 -99.9 -99.99 -9.99
2019/12/12 10:12 PST  -99.99 -99.99    2  140    3 -99.9 -99.9 -999.9 -9.9 -9.999 -99.9 -99.99 -9.99
2019/12/12 10:18 PST  -99.99 -99.99    2  176    3 -99.9 -99.9 -999.9 -9.9 -9.999 -99.9 -99.99 -9.99
2019/12/12 10:24 PST  -99.99 -99.99    3  192    4 -99.9 -99.9 -999.9 -9.9 -9.999 -99.9 -99.99 -9.99
2019/12/12 10:30 PST  -99.99 -99.99    5  167    5 -99.9 -99.9 -999.9 -9.9 -9.999 -99.9 -99.99 -9.99
2019/12/12 10:36 PST  -99.99 -99.99    4  149    5 -99.9 -99.9 -999.9 -9.9 -9.999 -99.9 -99.99 -9.99
2019/12/12 10:42 PST  -99.99 -99.99    3  136    5 -99.9 -99.9 -999.9 -9.9 -9.999 -99.9 -99.99 -9.99
2019/12/12 10:48 PST  -99.99 -99.99    4  166    5 -99.9 -99.9 -999.9 -9.9 -9.999 -99.9 -99.99 -9.99
2019/12/12 10:54 PST  -99.99 -99.99    5  156    6 -99.9 -99.9 -999.9 -9.9 -9.999 -99.9 -99.99 -9.99
2019/12/12 11:00 PST  -99.99 -99.99    5  153    6 -99.9 -99.9 -999.9 -9.9 -9.999 -99.9 -99.99 -9.99
2019/12/12 11:06 PST  -99.99 -99.99    6  146    7 -99.9 -99.9 -999.9 -9.9 -9.999 -99.9 -99.99 -9.99
2019/12/12 11:12 PST  -99.99 -99.99    5  146    6 -99.9 -99.9 -999.9 -9.9 -9.999 -99.9 -99.99 -9.99
2019/12/12 11:18 PST  -99.99 -99.99    4  144    6 -99.9 -99.9 -999.9 -9.9 -9.999 -99.9 -99.99 -9.99
2019/12/12 11:24 PST  -99.99 -99.99    5  152    5 -99.9 -99.9 -999.9 -9.9 -9.999 -99.9 -99.99 -9.99
2019/12/12 11:30 PST  -99.99 -99.99    5  156    6 -99.9 -99.9 -999.9 -9.9 -9.999 -99.9 -99.99 -9.99
2019/12/12 11:36 PST  -99.99 -99.99    5  160    6 -99.9 -99.9 -999.9 -9.9 -9.999 -99.9 -99.99 -9.99
2019/12/12 11:42 PST  -99.99 -99.99    5  145    5 -99.9 -99.9 -999.9 -9.9 -9.999 -99.9 -99.99 -9.99
2019/12/12 11:48 PST  -99.99 -99.99    5  147    5 -99.9 -99.9 -999.9 -9.9 -9.999 -99.9 -99.99 -9.99
2019/12/12 11:54 PST  -99.99 -99.99    5  160    6 -99.9 -99.9 -999.9 -9.9 -9.999 -99.9 -99.99 -9.99
2019/12/12 12:00 PST  -99.99 -99.99    4  150    5 -99.9 -99.9 -999.9 -9.9 -9.999 -99.9 -99.99 -9.99
2019/12/12 12:06 PST  -99.99 -99.99    4  143    5 -99.9 -99.9 -999.9 -9.9 -9.999 -99.9 -99.99 -9.99
2019/12/12 12:12 PST  -99.99 -99.99    5  146    5 -99.9 -99.9 -999.9 -9.9 -9.999 -99.9 -99.99 -9.99
2019/12/12 12:18 PST  -99.99 -99.99    5  147    6 -99.9 -99.9 -999.9 -9.9 -9.999 -99.9 -99.99 -9.99
2019/12/12 12:24 PST  -99.99 -99.99    5  146    6 -99.9 -99.9 -999.9 -9.9 -9.999 -99.9 -99.99 -9.99
2019/12/12 12:30 PST  -99.99 -99.99    5  149    6 -99.9 -99.9 -999.9 -9.9 -9.999 -99.9 -99.99 -9.99
2019/12/12 12:36 PST  -99.99 -99.99    5  140    6 -99.9 -99.9 -999.9 -9.9 -9.999 -99.9 -99.99 -9.99
2019/12/12 12:42 PST  -99.99 -99.99    5  155    6 -99.9 -99.9 -999.9 -9.9 -9.999 -99.9 -99.99 -9.99
2019/12/12 12:48 PST  -99.99 -99.99    5  162    6 -99.9 -99.9 -999.9 -9.9 -9.999 -99.9 -99.99 -9.99
2019/12/12 12:54 PST  -99.99 -99.99    5  163    6 -99.9 -99.9 -999.9 -9.9 -9.999 -99.9 -99.99 -9.99
2019/12/12 13:00 PST  -99.99 -99.99    4  177    5 -99.9 -99.9 -999.9 -9.9 -9.999 -99.9 -99.99 -9.99
2019/12/12 13:06 PST  -99.99 -99.99    4  180    5 -99.9 -99.9 -999.9 -9.9 -9.999 -99.9 -99.99 -9.99
2019/12/12 13:12 PST  -99.99 -99.99    4  183    5 -99.9 -99.9 -999.9 -9.9 -9.999 -99.9 -99.99 -9.99
2019/12/12 13:18 PST  -99.99 -99.99    4  187    5 -99.9 -99.9 -999.9 -9.9 -9.999 -99.9 -99.99 -9.99
2019/12/12 13:24 PST  -99.99 -99.99    5  185    5 -99.9 -99.9 -999.9 -9.9 -9.999 -99.9 -99.99 -9.99
2019/12/12 13:30 PST  -99.99 -99.99    4  189    5 -99.9 -99.9 -999.9 -9.9 -9.999 -99.9 -99.99 -9.99
2019/12/12 13:36 PST  -99.99 -99.99    3  196    4 -99.9 -99.9 -999.9 -9.9 -9.999 -99.9 -99.99 -9.99
2019/12/12 13:42 PST  -99.99 -99.99    2  186    3 -99.9 -99.9 -999.9 -9.9 -9.999 -99.9 -99.99 -9.99
2019/12/12 13:48 PST  -99.99 -99.99    3  182    3 -99.9 -99.9 -999.9 -9.9 -9.999 -99.9 -99.99 -9.99
2019/12/12 13:54 PST  -99.99 -99.99    4  185    4 -99.9 -99.9 -999.9 -9.9 -9.999 -99.9 -99.99 -9.99
2019/12/12 14:00 PST  -99.99 -99.99    4  194    5 -99.9 -99.9 -999.9 -9.9 -9.999 -99.9 -99.99 -9.99
2019/12/12 14:06 PST  -99.99 -99.99    5  185    5 -99.9 -99.9 -999.9 -9.9 -9.999 -99.9 -99.99 -9.99
2019/12/12 14:12 PST  -99.99 -99.99    5  180    5 -99.9 -99.9 -999.9 -9.9 -9.999 -99.9 -99.99 -9.99
2019/12/12 14:18 PST  -99.99 -99.99    6  188    7 -99.9 -99.9 -999.9 -9.9 -9.999 -99.9 -99.99 -9.99
2019/12/12 14:24 PST  -99.99 -99.99    6  196    7 -99.9 -99.9 -999.9 -9.9 -9.999 -99.9 -99.99 -9.99
2019/12/12 14:30 PST  -99.99 -99.99    6  197    6 -99.9 -99.9 -999.9 -9.9 -9.999 -99.9 -99.99 -9.99
2019/12/12 14:36 PST  -99.99 -99.99    5  192    6 -99.9 -99.9 -999.9 -9.9 -9.999 -99.9 -99.99 -9.99
2019/12/12 14:42 PST  -99.99 -99.99    5  192    5 -99.9 -99.9 -999.9 -9.9 -9.999 -99.9 -99.99 -9.99
2019/12/12 14:48 PST  -99.99 -99.99    5  191    5 -99.9 -99.9 -999.9 -9.9 -9.999 -99.9 -99.99 -9.99
2019/12/12 14:54 PST  -99.99 -99.99    4  189    5 -99.9 -99.9 -999.9 -9.9 -9.999 -99.9 -99.99 -9.99
2019/12/12 15:00 PST  -99.99 -99.99    6  182    6 -99.9 -99.9 -999.9 -9.9 -9.999 -99.9 -99.99 -9.99
2019/12/12 15:06 PST  -99.99 -99.99    5  185    6 -99.9 -99.9 -999.9 -9.9 -9.999 -99.9 -99.99 -9.99
2019/12/12 15:12 PST  -99.99 -99.99    5  179    6 -99.9 -99.9 -999.9 -9.9 -9.999 -99.9 -99.99 -9.99
2019/12/12 15:18 PST  -99.99 -99.99    6  177    6 -99.9 -99.9 -999.9 -9.9 -9.999 -99.9 -99.99 -9.99
2019/12/12 15:24 PST  -99.99 -99.99    6  175    6 -99.9 -99.9 -999.9 -9.9 -9.999 -99.9 -99.99 -9.99
2019/12/12 15:30 PST  -99.99 -99.99    6  179    6 -99.9 -99.9 -999.9 -9.9 -9.999 -99.9 -99.99 -9.99
2019/12/12 15:36 PST  -99.99 -99.99    6  177    6 -99.9 -99.9 -999.9 -9.9 -9.999 -99.9 -99.99 -9.99
2019/12/12 15:42 PST  -99.99 -99.99    5  171    6 -99.9 -99.9 -999.9 -9.9 -9.999 -99.9 -99.99 -9.99
2019/12/12 15:48 PST  -99.99 -99.99    6  171    6 -99.9 -99.9 -999.9 -9.9 -9.999 -99.9 -99.99 -9.99
2019/12/12 15:54 PST  -99.99 -99.99    6  176    6 -99.9 -99.9 -999.9 -9.9 -9.999 -99.9 -99.99 -9.99
2019/12/12 16:00 PST  -99.99 -99.99    5  182    6 -99.9 -99.9 -999.9 -9.9 -9.999 -99.9 -99.99 -9.99
2019/12/12 16:06 PST  -99.99 -99.99    5  183    6 -99.9 -99.9 -999.9 -9.9 -9.999 -99.9 -99.99 -9.99
2019/12/12 16:12 PST  -99.99 -99.99    5  186    5 -99.9 -99.9 -999.9 -9.9 -9.999 -99.9 -99.99 -9.99
2019/12/12 16:18 PST  -99.99 -99.99    5  187    5 -99.9 -99.9 -999.9 -9.9 -9.999 -99.9 -99.99 -9.99
2019/12/12 16:24 PST  -99.99 -99.99    4  192    5 -99.9 -99.9 -999.9 -9.9 -9.999 -99.9 -99.99 -9.99
2019/12/12 16:30 PST  -99.99 -99.99    4  196    5 -99.9 -99.9 -999.9 -9.9 -9.999 -99.9 -99.99 -9.99
2019/12/12 16:36 PST  -99.99 -99.99    4  199    5 -99.9 -99.9 -999.9 -9.9 -9.999 -99.9 -99.99 -9.99
2019/12/12 16:42 PST  -99.99 -99.99    4  219    4 -99.9 -99.9 -999.9 -9.9 -9.999 -99.9 -99.99 -9.99
2019/12/12 16:48 PST  -99.99 -99.99    4  212    5 -99.9 -99.9 -999.9 -9.9 -9.999 -99.9 -99.99 -9.99
2019/12/12 16:54 PST  -99.99 -99.99    4  207    5 -99.9 -99.9 -999.9 -9.9 -9.999 -99.9 -99.99 -9.99
2019/12/12 17:00 PST  -99.99 -99.99    4  211    5 -99.9 -99.9 -999.9 -9.9 -9.999 -99.9 -99.99 -9.99
2019/12/12 17:06 PST  -99.99 -99.99    4  210    4 -99.9 -99.9 -999.9 -9.9 -9.999 -99.9 -99.99 -9.99
2019/12/12 17:12 PST  -99.99 -99.99    4  206    5 -99.9 -99.9 -999.9 -9.9 -9.999 -99.9 -99.99 -9.99
2019/12/12 17:18 PST  -99.99 -99.99    4  204    5 -99.9 -99.9 -999.9 -9.9 -9.999 -99.9 -99.99 -9.99
2019/12/12 17:24 PST  -99.99 -99.99    5  201    5 -99.9 -99.9 -999.9 -9.9 -9.999 -99.9 -99.99 -9.99
2019/12/12 17:30 PST  -99.99 -99.99    3  193    5 -99.9 -99.9 -999.9 -9.9 -9.999 -99.9 -99.99 -9.99
2019/12/12 17:36 PST  -99.99 -99.99    3  186    4 -99.9 -99.9 -999.9 -9.9 -9.999 -99.9 -99.99 -9.99
2019/12/12 17:42 PST  -99.99 -99.99    2  189    2 -99.9 -99.9 -999.9 -9.9 -9.999 -99.9 -99.99 -9.99
2019/12/12 17:48 PST  -99.99 -99.99    1  139    2 -99.9 -99.9 -999.9 -9.9 -9.999 -99.9 -99.99 -9.99
2019/12/12 17:54 PST  -99.99 -99.99    1  135    1 -99.9 -99.9 -999.9 -9.9 -9.999 -99.9 -99.99 -9.99
2019/12/12 18:00 PST  -99.99 -99.99    1  113    2 -99.9 -99.9 -999.9 -9.9 -9.999 -99.9 -99.99 -9.99
2019/12/12 18:06 PST  -99.99 -99.99    0    0    0 -99.9 -99.9 -999.9 -9.9 -9.999 -99.9 -99.99 -9.99
2019/12/12 18:12 PST  -99.99 -99.99    0   62    1 -99.9 -99.9 -999.9 -9.9 -9.999 -99.9 -99.99 -9.99
2019/12/12 18:18 PST  -99.99 -99.99    1   32    2 -99.9 -99.9 -999.9 -9.9 -9.999 -99.9 -99.99 -9.99
2019/12/12 18:24 PST  -99.99 -99.99    2   16    3 -99.9 -99.9 -999.9 -9.9 -9.999 -99.9 -99.99 -9.99
2019/12/12 18:30 PST  -99.99 -99.99    2   17    3 -99.9 -99.9 -999.9 -9.9 -9.999 -99.9 -99.99 -9.99
2019/12/12 18:36 PST  -99.99 -99.99    2   17    3 -99.9 -99.9 -999.9 -9.9 -9.999 -99.9 -99.99 -9.99
2019/12/12 18:42 PST  -99.99 -99.99    2   30    3 -99.9 -99.9 -999.9 -9.9 -9.999 -99.9 -99.99 -9.99
2019/12/12 18:48 PST  -99.99 -99.99    4   75    5 -99.9 -99.9 -999.9 -9.9 -9.999 -99.9 -99.99 -9.99
2019/12/12 18:54 PST  -99.99 -99.99    3   62    4 -99.9 -99.9 -999.9 -9.9 -9.999 -99.9 -99.99 -9.99
2019/12/12 19:00 PST  -99.99 -99.99    3   75    4 -99.9 -99.9 -999.9 -9.9 -9.999 -99.9 -99.99 -9.99
2019/12/12 19:06 PST  -99.99 -99.99    4   69    5 -99.9 -99.9 -999.9 -9.9 -9.999 -99.9 -99.99 -9.99
2019/12/12 19:12 PST  -99.99 -99.99    3   76    4 -99.9 -99.9 -999.9 -9.9 -9.999 -99.9 -99.99 -9.99
2019/12/12 19:18 PST  -99.99 -99.99    2   79    3 -99.9 -99.9 -999.9 -9.9 -9.999 -99.9 -99.99 -9.99
2019/12/12 19:24 PST  -99.99 -99.99    2   72    3 -99.9 -99.9 -999.9 -9.9 -9.999 -99.9 -99.99 -9.99
2019/12/12 19:30 PST  -99.99 -99.99    3   81    4 -99.9 -99.9 -999.9 -9.9 -9.999 -99.9 -99.99 -9.99
2019/12/12 19:36 PST  -99.99 -99.99    4   80    4 -99.9 -99.9 -999.9 -9.9 -9.999 -99.9 -99.99 -9.99
2019/12/12 19:42 PST  -99.99 -99.99    3   91    4 -99.9 -99.9 -999.9 -9.9 -9.999 -99.9 -99.99 -9.99
2019/12/12 19:48 PST  -99.99 -99.99    2   94    4 -99.9 -99.9 -999.9 -9.9 -9.999 -99.9 -99.99 -9.99
2019/12/12 19:54 PST  -99.99 -99.99    2  107    3 -99.9 -99.9 -999.9 -9.9 -9.999 -99.9 -99.99 -9.99
2019/12/12 20:00 PST  -99.99 -99.99    2  100    2 -99.9 -99.9 -999.9 -9.9 -9.999 -99.9 -99.99 -9.99
2019/12/12 20:06 PST  -99.99 -99.99    1   69    2 -99.9 -99.9 -999.9 -9.9 -9.999 -99.9 -99.99 -9.99
2019/12/12 20:12 PST  -99.99 -99.99    2   86    3 -99.9 -99.9 -999.9 -9.9 -9.999 -99.9 -99.99 -9.99
2019/12/12 20:18 PST  -99.99 -99.99    1   87    3 -99.9 -99.9 -999.9 -9.9 -9.999 -99.9 -99.99 -9.99
2019/12/12 20:24 PST  -99.99 -99.99    1   77    2 -99.9 -99.9 -999.9 -9.9 -9.999 -99.9 -99.99 -9.99
2019/12/12 20:30 PST  -99.99 -99.99    2   89    3 -99.9 -99.9 -999.9 -9.9 -9.999 -99.9 -99.99 -9.99
2019/12/12 20:36 PST  -99.99 -99.99    2   90    3 -99.9 -99.9 -999.9 -9.9 -9.999 -99.9 -99.99 -9.99
2019/12/12 20:42 PST  -99.99 -99.99    0   90    2 -99.9 -99.9 -999.9 -9.9 -9.999 -99.9 -99.99 -9.99
2019/12/12 20:48 PST  -99.99 -99.99    3  100    3 -99.9 -99.9 -999.9 -9.9 -9.999 -99.9 -99.99 -9.99
2019/12/12 20:54 PST  -99.99 -99.99    3   97    4 -99.9 -99.9 -999.9 -9.9 -9.999 -99.9 -99.99 -9.99
2019/12/12 21:00 PST  -99.99 -99.99    3   87    4 -99.9 -99.9 -999.9 -9.9 -9.999 -99.9 -99.99 -9.99
2019/12/12 21:06 PST  -99.99 -99.99    2   88    3 -99.9 -99.9 -999.9 -9.9 -9.999 -99.9 -99.99 -9.99
2019/12/12 21:12 PST  -99.99 -99.99    1   93    3 -99.9 -99.9 -999.9 -9.9 -9.999 -99.9 -99.99 -9.99
2019/12/12 21:18 PST  -99.99 -99.99    3   91    3 -99.9 -99.9 -999.9 -9.9 -9.999 -99.9 -99.99 -9.99
2019/12/12 21:24 PST  -99.99 -99.99    3   96    4 -99.9 -99.9 -999.9 -9.9 -9.999 -99.9 -99.99 -9.99
2019/12/12 21:30 PST  -99.99 -99.99    2  102    4 -99.9 -99.9 -999.9 -9.9 -9.999 -99.9 -99.99 -9.99
2019/12/12 21:36 PST  -99.99 -99.99    3   99    4 -99.9 -99.9 -999.9 -9.9 -9.999 -99.9 -99.99 -9.99
2019/12/12 21:42 PST  -99.99 -99.99    3   98    3 -99.9 -99.9 -999.9 -9.9 -9.999 -99.9 -99.99 -9.99
2019/12/12 21:48 PST  -99.99 -99.99    3   93    4 -99.9 -99.9 -999.9 -9.9 -9.999 -99.9 -99.99 -9.99
2019/12/12 21:54 PST  -99.99 -99.99    3  106    3 -99.9 -99.9 -999.9 -9.9 -9.999 -99.9 -99.99 -9.99
2019/12/12 22:00 PST  -99.99 -99.99    3  102    3 -99.9 -99.9 -999.9 -9.9 -9.999 -99.9 -99.99 -9.99
2019/12/12 22:06 PST  -99.99 -99.99    3   86    3 -99.9 -99.9 -999.9 -9.9 -9.999 -99.9 -99.99 -9.99
2019/12/12 22:12 PST  -99.99 -99.99    3   84    3 -99.9 -99.9 -999.9 -9.9 -9.999 -99.9 -99.99 -9.99
2019/12/12 22:18 PST  -99.99 -99.99    2   88    3 -99.9 -99.9 -999.9 -9.9 -9.999 -99.9 -99.99 -9.99
2019/12/12 22:24 PST  -99.99 -99.99    3   83    4 -99.9 -99.9 -999.9 -9.9 -9.999 -99.9 -99.99 -9.99
2019/12/12 22:30 PST  -99.99 -99.99    3   89    4 -99.9 -99.9 -999.9 -9.9 -9.999 -99.9 -99.99 -9.99
2019/12/12 22:36 PST  -99.99 -99.99    4   96    4 -99.9 -99.9 -999.9 -9.9 -9.999 -99.9 -99.99 -9.99
2019/12/12 22:42 PST  -99.99 -99.99    4   88    5 -99.9 -99.9 -999.9 -9.9 -9.999 -99.9 -99.99 -9.99
2019/12/12 22:48 PST  -99.99 -99.99    3   94    5 -99.9 -99.9 -999.9 -9.9 -9.999 -99.9 -99.99 -9.99
2019/12/12 22:54 PST  -99.99 -99.99    3  109    4 -99.9 -99.9 -999.9 -9.9 -9.999 -99.9 -99.99 -9.99
2019/12/12 23:00 PST  -99.99 -99.99    3  110    4 -99.9 -99.9 -999.9 -9.9 -9.999 -99.9 -99.99 -9.99
2019/12/12 23:06 PST  -99.99 -99.99    3   99    4 -99.9 -99.9 -999.9 -9.9 -9.999 -99.9 -99.99 -9.99
2019/12/12 23:12 PST  -99.99 -99.99    2   87    3 -99.9 -99.9 -999.9 -9.9 -9.999 -99.9 -99.99 -9.99
2019/12/12 23:18 PST  -99.99 -99.99    3   83    4 -99.9 -99.9 -999.9 -9.9 -9.999 -99.9 -99.99 -9.99
2019/12/12 23:24 PST  -99.99 -99.99    2  102    3 -99.9 -99.9 -999.9 -9.9 -9.999 -99.9 -99.99 -9.99
2019/12/12 23:30 PST  -99.99 -99.99    2  103    3 -99.9 -99.9 -999.9 -9.9 -9.999 -99.9 -99.99 -9.99
2019/12/12 23:36 PST  -99.99 -99.99    2   87    3 -99.9 -99.9 -999.9 -9.9 -9.999 -99.9 -99.99 -9.99
2019/12/12 23:42 PST  -99.99 -99.99    3   90    3 -99.9 -99.9 -999.9 -9.9 -9.999 -99.9 -99.99 -9.99
2019/12/12 23:48 PST  -99.99 -99.99    2   95    4 -99.9 -99.9 -999.9 -9.9 -9.999 -99.9 -99.99 -9.99
2019/12/12 23:54 PST  -99.99 -99.99    2  108    3 -99.9 -99.9 -999.9 -9.9 -9.999 -99.9 -99.99 -9.99
2019/12/13 00:00 PST  -99.99 -99.99    3  114    3 -99.9 -99.9 -999.9 -9.9 -9.999 -99.9 -99.99 -9.99
2019/12/13 00:06 PST  -99.99 -99.99    3  113    3 -99.9 -99.9 -999.9 -9.9 -9.999 -99.9 -99.99 -9.99
2019/12/13 00:12 PST  -99.99 -99.99    2   96    3 -99.9 -99.9 -999.9 -9.9 -9.999 -99.9 -99.99 -9.99
2019/12/13 00:18 PST  -99.99 -99.99    2   76    3 -99.9 -99.9 -999.9 -9.9 -9.999 -99.9 -99.99 -9.99
2019/12/13 00:24 PST  -99.99 -99.99    2   91    3 -99.9 -99.9 -999.9 -9.9 -9.999 -99.9 -99.99 -9.99
2019/12/13 00:30 PST  -99.99 -99.99    2   90    3 -99.9 -99.9 -999.9 -9.9 -9.999 -99.9 -99.99 -9.99
2019/12/13 00:36 PST  -99.99 -99.99    2  103    3 -99.9 -99.9 -999.9 -9.9 -9.999 -99.9 -99.99 -9.99
2019/12/13 00:42 PST  -99.99 -99.99    2  106    3 -99.9 -99.9 -999.9 -9.9 -9.999 -99.9 -99.99 -9.99
2019/12/13 00:48 PST  -99.99 -99.99    2  118    3 -99.9 -99.9 -999.9 -9.9 -9.999 -99.9 -99.99 -9.99
2019/12/13 00:54 PST  -99.99 -99.99    1  125    2 -99.9 -99.9 -999.9 -9.9 -9.999 -99.9 -99.99 -9.99
2019/12/13 01:00 PST  -99.99 -99.99    0  127    1 -99.9 -99.9 -999.9 -9.9 -9.999 -99.9 -99.99 -9.99
2019/12/13 01:06 PST  -99.99 -99.99    0    0    0 -99.9 -99.9 -999.9 -9.9 -9.999 -99.9 -99.99 -9.99
2019/12/13 01:12 PST  -99.99 -99.99    0  192    2 -99.9 -99.9 -999.9 -9.9 -9.999 -99.9 -99.99 -9.99
2019/12/13 01:18 PST  -99.99 -99.99    1  156    2 -99.9 -99.9 -999.9 -9.9 -9.999 -99.9 -99.99 -9.99
2019/12/13 01:24 PST  -99.99 -99.99    1  220    2 -99.9 -99.9 -999.9 -9.9 -9.999 -99.9 -99.99 -9.99
2019/12/13 01:30 PST  -99.99 -99.99    1  223    2 -99.9 -99.9 -999.9 -9.9 -9.999 -99.9 -99.99 -9.99
2019/12/13 01:36 PST  -99.99 -99.99    0  242    0 -99.9 -99.9 -999.9 -9.9 -9.999 -99.9 -99.99 -9.99
2019/12/13 01:42 PST  -99.99 -99.99    0  149    1 -99.9 -99.9 -999.9 -9.9 -9.999 -99.9 -99.99 -9.99
2019/12/13 01:48 PST  -99.99 -99.99    1  153    2 -99.9 -99.9 -999.9 -9.9 -9.999 -99.9 -99.99 -9.99
2019/12/13 01:54 PST  -99.99 -99.99    0    0    1 -99.9 -99.9 -999.9 -9.9 -9.999 -99.9 -99.99 -9.99
2019/12/13 02:00 PST  -99.99 -99.99    0   16    1 -99.9 -99.9 -999.9 -9.9 -9.999 -99.9 -99.99 -9.99
2019/12/13 02:06 PST  -99.99 -99.99    0   64    1 -99.9 -99.9 -999.9 -9.9 -9.999 -99.9 -99.99 -9.99
2019/12/13 02:12 PST  -99.99 -99.99    1   51    2 -99.9 -99.9 -999.9 -9.9 -9.999 -99.9 -99.99 -9.99
2019/12/13 02:18 PST  -99.99 -99.99    1   79    2 -99.9 -99.9 -999.9 -9.9 -9.999 -99.9 -99.99 -9.99
2019/12/13 02:24 PST  -99.99 -99.99    1   55    2 -99.9 -99.9 -999.9 -9.9 -9.999 -99.9 -99.99 -9.99
2019/12/13 02:30 PST  -99.99 -99.99    1   38    2 -99.9 -99.9 -999.9 -9.9 -9.999 -99.9 -99.99 -9.99
2019/12/13 02:36 PST  -99.99 -99.99    0   69    2 -99.9 -99.9 -999.9 -9.9 -9.999 -99.9 -99.99 -9.99
2019/12/13 02:42 PST  -99.99 -99.99    2   38    2 -99.9 -99.9 -999.9 -9.9 -9.999 -99.9 -99.99 -9.99
2019/12/13 02:48 PST  -99.99 -99.99    1   29    3 -99.9 -99.9 -999.9 -9.9 -9.999 -99.9 -99.99 -9.99
2019/12/13 02:54 PST  -99.99 -99.99    0   35    3 -99.9 -99.9 -999.9 -9.9 -9.999 -99.9 -99.99 -9.99
2019/12/13 03:00 PST  -99.99 -99.99    1   71    2 -99.9 -99.9 -999.9 -9.9 -9.999 -99.9 -99.99 -9.99
2019/12/13 03:06 PST  -99.99 -99.99    1  101    2 -99.9 -99.9 -999.9 -9.9 -9.999 -99.9 -99.99 -9.99
2019/12/13 03:12 PST  -99.99 -99.99    0  138    1 -99.9 -99.9 -999.9 -9.9 -9.999 -99.9 -99.99 -9.99
2019/12/13 03:18 PST  -99.99 -99.99    1   65    2 -99.9 -99.9 -999.9 -9.9 -9.999 -99.9 -99.99 -9.99
2019/12/13 03:24 PST  -99.99 -99.99    0    0    1 -99.9 -99.9 -999.9 -9.9 -9.999 -99.9 -99.99 -9.99
2019/12/13 03:30 PST  -99.99 -99.99    0    0    0 -99.9 -99.9 -999.9 -9.9 -9.999 -99.9 -99.99 -9.99
2019/12/13 03:36 PST  -99.99 -99.99    2  123    3 -99.9 -99.9 -999.9 -9.9 -9.999 -99.9 -99.99 -9.99
2019/12/13 03:42 PST  -99.99 -99.99    0    0    2 -99.9 -99.9 -999.9 -9.9 -9.999 -99.9 -99.99 -9.99
2019/12/13 03:48 PST  -99.99 -99.99    0   77    1 -99.9 -99.9 -999.9 -9.9 -9.999 -99.9 -99.99 -9.99
2019/12/13 03:54 PST  -99.99 -99.99    2   67    2 -99.9 -99.9 -999.9 -9.9 -9.999 -99.9 -99.99 -9.99
2019/12/13 04:00 PST  -99.99 -99.99    1  104    2 -99.9 -99.9 -999.9 -9.9 -9.999 -99.9 -99.99 -9.99
2019/12/13 04:06 PST  -99.99 -99.99    2   93    3 -99.9 -99.9 -999.9 -9.9 -9.999 -99.9 -99.99 -9.99
2019/12/13 04:12 PST  -99.99 -99.99    1  129    2 -99.9 -99.9 -999.9 -9.9 -9.999 -99.9 -99.99 -9.99
2019/12/13 04:18 PST  -99.99 -99.99    3   85    4 -99.9 -99.9 -999.9 -9.9 -9.999 -99.9 -99.99 -9.99
2019/12/13 04:24 PST  -99.99 -99.99    2   92    4 -99.9 -99.9 -999.9 -9.9 -9.999 -99.9 -99.99 -9.99
2019/12/13 04:30 PST  -99.99 -99.99    2  119    3 -99.9 -99.9 -999.9 -9.9 -9.999 -99.9 -99.99 -9.99
2019/12/13 04:36 PST  -99.99 -99.99    3  116    4 -99.9 -99.9 -999.9 -9.9 -9.999 -99.9 -99.99 -9.99
2019/12/13 04:42 PST  -99.99 -99.99    2  140    4 -99.9 -99.9 -999.9 -9.9 -9.999 -99.9 -99.99 -9.99
2019/12/13 04:48 PST  -99.99 -99.99    3  141    4 -99.9 -99.9 -999.9 -9.9 -9.999 -99.9 -99.99 -9.99
2019/12/13 04:54 PST  -99.99 -99.99    2   96    2 -99.9 -99.9 -999.9 -9.9 -9.999 -99.9 -99.99 -9.99
2019/12/13 05:00 PST  -99.99 -99.99    2  147    4 -99.9 -99.9 -999.9 -9.9 -9.999 -99.9 -99.99 -9.99
2019/12/13 05:06 PST  -99.99 -99.99    3  136    4 -99.9 -99.9 -999.9 -9.9 -9.999 -99.9 -99.99 -9.99
2019/12/13 05:12 PST  -99.99 -99.99    3  106    4 -99.9 -99.9 -999.9 -9.9 -9.999 -99.9 -99.99 -9.99
2019/12/13 05:18 PST  -99.99 -99.99    2  109    3 -99.9 -99.9 -999.9 -9.9 -9.999 -99.9 -99.99 -9.99
2019/12/13 05:24 PST  -99.99 -99.99    2  110    3 -99.9 -99.9 -999.9 -9.9 -9.999 -99.9 -99.99 -9.99
2019/12/13 05:30 PST  -99.99 -99.99    2   90    4 -99.9 -99.9 -999.9 -9.9 -9.999 -99.9 -99.99 -9.99
2019/12/13 05:36 PST  -99.99 -99.99    2   86    3 -99.9 -99.9 -999.9 -9.9 -9.999 -99.9 -99.99 -9.99
2019/12/13 05:42 PST  -99.99 -99.99    3  133    4 -99.9 -99.9 -999.9 -9.9 -9.999 -99.9 -99.99 -9.99
2019/12/13 05:48 PST  -99.99 -99.99    5  116    6 -99.9 -99.9 -999.9 -9.9 -9.999 -99.9 -99.99 -9.99
2019/12/13 05:54 PST  -99.99 -99.99    3  127    5 -99.9 -99.9 -999.9 -9.9 -9.999 -99.9 -99.99 -9.99
2019/12/13 06:00 PST  -99.99 -99.99    3  107    4 -99.9 -99.9 -999.9 -9.9 -9.999 -99.9 -99.99 -9.99
2019/12/13 06:06 PST  -99.99 -99.99    4  137    4 -99.9 -99.9 -999.9 -9.9 -9.999 -99.9 -99.99 -9.99
2019/12/13 06:12 PST  -99.99 -99.99    4  116    5 -99.9 -99.9 -999.9 -9.9 -9.999 -99.9 -99.99 -9.99
2019/12/13 06:18 PST  -99.99 -99.99    3   79    5 -99.9 -99.9 -999.9 -9.9 -9.999 -99.9 -99.99 -9.99
2019/12/13 06:24 PST  -99.99 -99.99    2   97    3 -99.9 -99.9 -999.9 -9.9 -9.999 -99.9 -99.99 -9.99
2019/12/13 06:30 PST  -99.99 -99.99    4   90    5 -99.9 -99.9 -999.9 -9.9 -9.999 -99.9 -99.99 -9.99
2019/12/13 06:36 PST  -99.99 -99.99    4   84    6 -99.9 -99.9 -999.9 -9.9 -9.999 -99.9 -99.99 -9.99
2019/12/13 06:42 PST  -99.99 -99.99    1  110    3 -99.9 -99.9 -999.9 -9.9 -9.999 -99.9 -99.99 -9.99
2019/12/13 06:48 PST  -99.99 -99.99    1   15    3 -99.9 -99.9 -999.9 -9.9 -9.999 -99.9 -99.99 -9.99
2019/12/13 06:54 PST  -99.99 -99.99    1   69    3 -99.9 -99.9 -999.9 -9.9 -9.999 -99.9 -99.99 -9.99
2019/12/13 07:00 PST  -99.99 -99.99    2   24    3 -99.9 -99.9 -999.9 -9.9 -9.999 -99.9 -99.99 -9.99
2019/12/13 07:06 PST  -99.99 -99.99    2   34    3 -99.9 -99.9 -999.9 -9.9 -9.999 -99.9 -99.99 -9.99
2019/12/13 07:12 PST  -99.99 -99.99    1   55    3 -99.9 -99.9 -999.9 -9.9 -9.999 -99.9 -99.99 -9.99
2019/12/13 07:18 PST  -99.99 -99.99    2   77    3 -99.9 -99.9 -999.9 -9.9 -9.999 -99.9 -99.99 -9.99
2019/12/13 07:24 PST  -99.99 -99.99    0   21    3 -99.9 -99.9 -999.9 -9.9 -9.999 -99.9 -99.99 -9.99
2019/12/13 07:30 PST  -99.99 -99.99    2  130    2 -99.9 -99.9 -999.9 -9.9 -9.999 -99.9 -99.99 -9.99
2019/12/13 07:36 PST  -99.99 -99.99    2  113    3 -99.9 -99.9 -999.9 -9.9 -9.999 -99.9 -99.99 -9.99
2019/12/13 07:42 PST  -99.99 -99.99    1  145    3 -99.9 -99.9 -999.9 -9.9 -9.999 -99.9 -99.99 -9.99
2019/12/13 07:48 PST  -99.99 -99.99    1  159    3 -99.9 -99.9 -999.9 -9.9 -9.999 -99.9 -99.99 -9.99
2019/12/13 07:54 PST  -99.99 -99.99    1  119    3 -99.9 -99.9 -999.9 -9.9 -9.999 -99.9 -99.99 -9.99
2019/12/13 08:00 PST  -99.99 -99.99    4  152    4 -99.9 -99.9 -999.9 -9.9 -9.999 -99.9 -99.99 -9.99
2019/12/13 08:06 PST  -99.99 -99.99    1  176    4 -99.9 -99.9 -999.9 -9.9 -9.999 -99.9 -99.99 -9.99
2019/12/13 08:12 PST  -99.99 -99.99    1  136    3 -99.9 -99.9 -999.9 -9.9 -9.999 -99.9 -99.99 -9.99
2019/12/13 08:18 PST  -99.99 -99.99    4  145    4 -99.9 -99.9 -999.9 -9.9 -9.999 -99.9 -99.99 -9.99
2019/12/13 08:24 PST  -99.99 -99.99    3  138    4 -99.9 -99.9 -999.9 -9.9 -9.999 -99.9 -99.99 -9.99
2019/12/13 08:30 PST  -99.99 -99.99    2  152    4 -99.9 -99.9 -999.9 -9.9 -9.999 -99.9 -99.99 -9.99
2019/12/13 08:36 PST  -99.99 -99.99    1  170    2 -99.9 -99.9 -999.9 -9.9 -9.999 -99.9 -99.99 -9.99
2019/12/13 08:42 PST  -99.99 -99.99    0    0    1 -99.9 -99.9 -999.9 -9.9 -9.999 -99.9 -99.99 -9.99
2019/12/13 08:48 PST  -99.99 -99.99    0  113    0 -99.9 -99.9 -999.9 -9.9 -9.999 -99.9 -99.99 -9.99
2019/12/13 08:54 PST  -99.99 -99.99    1   98    2 -99.9 -99.9 -999.9 -9.9 -9.999 -99.9 -99.99 -9.99
2019/12/13 09:00 PST  -99.99 -99.99    1  206    2 -99.9 -99.9 -999.9 -9.9 -9.999 -99.9 -99.99 -9.99
2019/12/13 09:06 PST  -99.99 -99.99    1  169    2 -99.9 -99.9 -999.9 -9.9 -9.999 -99.9 -99.99 -9.99
2019/12/13 09:12 PST  -99.99 -99.99    1  141    2 -99.9 -99.9 -999.9 -9.9 -9.999 -99.9 -99.99 -9.99
2019/12/13 09:18 PST  -99.99 -99.99    3  182    3 -99.9 -99.9 -999.9 -9.9 -9.999 -99.9 -99.99 -9.99
2019/12/13 09:24 PST  -99.99 -99.99    2  136    2 -99.9 -99.9 -999.9 -9.9 -9.999 -99.9 -99.99 -9.99
2019/12/13 09:30 PST  -99.99 -99.99    2  185    2 -99.9 -99.9 -999.9 -9.9 -9.999 -99.9 -99.99 -9.99
2019/12/13 09:36 PST  -99.99 -99.99    2  194    3 -99.9 -99.9 -999.9 -9.9 -9.999 -99.9 -99.99 -9.99
2019/12/13 09:42 PST  -99.99 -99.99    1  165    3 -99.9 -99.9 -999.9 -9.9 -9.999 -99.9 -99.99 -9.99
2019/12/13 09:48 PST  -99.99 -99.99    2  209    3 -99.9 -99.9 -999.9 -9.9 -9.999 -99.9 -99.99 -9.99
2019/12/13 09:54 PST  -99.99 -99.99    3  203    4 -99.9 -99.9 -999.9 -9.9 -9.999 -99.9 -99.99 -9.99
2019/12/13 10:00 PST  -99.99 -99.99    2  182    4 -99.9 -99.9 -999.9 -9.9 -9.999 -99.9 -99.99 -9.99
2019/12/13 10:06 PST  -99.99 -99.99    2  179    3 -99.9 -99.9 -999.9 -9.9 -9.999 -99.9 -99.99 -9.99
2019/12/13 10:12 PST  -99.99 -99.99    3  184    4 -99.9 -99.9 -999.9 -9.9 -9.999 -99.9 -99.99 -9.99
2019/12/13 10:18 PST  -99.99 -99.99    2  195    4 -99.9 -99.9 -999.9 -9.9 -9.999 -99.9 -99.99 -9.99
2019/12/13 10:24 PST  -99.99 -99.99    2  164    4 -99.9 -99.9 -999.9 -9.9 -9.999 -99.9 -99.99 -9.99
2019/12/13 10:30 PST  -99.99 -99.99    2  147    3 -99.9 -99.9 -999.9 -9.9 -9.999 -99.9 -99.99 -9.99
2019/12/13 10:36 PST  -99.99 -99.99    1  164    3 -99.9 -99.9 -999.9 -9.9 -9.999 -99.9 -99.99 -9.99
2019/12/13 10:42 PST  -99.99 -99.99    0  309    1 -99.9 -99.9 -999.9 -9.9 -9.999 -99.9 -99.99 -9.99
2019/12/13 10:48 PST  -99.99 -99.99    0  184    1 -99.9 -99.9 -999.9 -9.9 -9.999 -99.9 -99.99 -9.99
2019/12/13 10:54 PST  -99.99 -99.99    0  317    1 -99.9 -99.9 -999.9 -9.9 -9.999 -99.9 -99.99 -9.99
2019/12/13 11:00 PST  -99.99 -99.99    1  222    2 -99.9 -99.9 -999.9 -9.9 -9.999 -99.9 -99.99 -9.99
2019/12/13 11:06 PST  -99.99 -99.99    4  211    4 -99.9 -99.9 -999.9 -9.9 -9.999 -99.9 -99.99 -9.99
2019/12/13 11:12 PST  -99.99 -99.99    2  200    4 -99.9 -99.9 -999.9 -9.9 -9.999 -99.9 -99.99 -9.99
2019/12/13 11:18 PST  -99.99 -99.99    3  229    4 -99.9 -99.9 -999.9 -9.9 -9.999 -99.9 -99.99 -9.99
2019/12/13 11:24 PST  -99.99 -99.99    2  179    3 -99.9 -99.9 -999.9 -9.9 -9.999 -99.9 -99.99 -9.99
2019/12/13 11:30 PST  -99.99 -99.99    2  197    3 -99.9 -99.9 -999.9 -9.9 -9.999 -99.9 -99.99 -9.99
2019/12/13 11:36 PST  -99.99 -99.99    3  184    4 -99.9 -99.9 -999.9 -9.9 -9.999 -99.9 -99.99 -9.99
2019/12/13 11:42 PST  -99.99 -99.99    2  167    4 -99.9 -99.9 -999.9 -9.9 -9.999 -99.9 -99.99 -9.99
2019/12/13 11:48 PST  -99.99 -99.99    4  188    5 -99.9 -99.9 -999.9 -9.9 -9.999 -99.9 -99.99 -9.99
2019/12/13 11:54 PST  -99.99 -99.99    4  194    5 -99.9 -99.9 -999.9 -9.9 -9.999 -99.9 -99.99 -9.99
2019/12/13 12:00 PST  -99.99 -99.99    4  192    5 -99.9 -99.9 -999.9 -9.9 -9.999 -99.9 -99.99 -9.99
2019/12/13 12:06 PST  -99.99 -99.99    4  190    5 -99.9 -99.9 -999.9 -9.9 -9.999 -99.9 -99.99 -9.99
2019/12/13 12:12 PST  -99.99 -99.99    5  187    6 -99.9 -99.9 -999.9 -9.9 -9.999 -99.9 -99.99 -9.99
2019/12/13 12:18 PST  -99.99 -99.99    5  189    6 -99.9 -99.9 -999.9 -9.9 -9.999 -99.9 -99.99 -9.99
2019/12/13 12:24 PST  -99.99 -99.99    6  203    6 -99.9 -99.9 -999.9 -9.9 -9.999 -99.9 -99.99 -9.99
2019/12/13 12:30 PST  -99.99 -99.99    6  201    7 -99.9 -99.9 -999.9 -9.9 -9.999 -99.9 -99.99 -9.99
2019/12/13 12:36 PST  -99.99 -99.99    6  219    7 -99.9 -99.9 -999.9 -9.9 -9.999 -99.9 -99.99 -9.99
2019/12/13 12:42 PST  -99.99 -99.99    6  215    7 -99.9 -99.9 -999.9 -9.9 -9.999 -99.9 -99.99 -9.99
2019/12/13 12:48 PST  -99.99 -99.99    6  220    7 -99.9 -99.9 -999.9 -9.9 -9.999 -99.9 -99.99 -9.99
2019/12/13 12:54 PST  -99.99 -99.99    6  215    7 -99.9 -99.9 -999.9 -9.9 -9.999 -99.9 -99.99 -9.99
2019/12/13 13:00 PST  -99.99 -99.99    8  216    9 -99.9 -99.9 -999.9 -9.9 -9.999 -99.9 -99.99 -9.99
2019/12/13 13:06 PST  -99.99 -99.99    8  215    9 -99.9 -99.9 -999.9 -9.9 -9.999 -99.9 -99.99 -9.99
2019/12/13 13:12 PST  -99.99 -99.99    8  216   10 -99.9 -99.9 -999.9 -9.9 -9.999 -99.9 -99.99 -9.99
2019/12/13 13:18 PST  -99.99 -99.99   10  216   11 -99.9 -99.9 -999.9 -9.9 -9.999 -99.9 -99.99 -9.99
2019/12/13 13:24 PST  -99.99 -99.99   10  218   11 -99.9 -99.9 -999.9 -9.9 -9.999 -99.9 -99.99 -9.99
2019/12/13 13:30 PST  -99.99 -99.99   10  216   11 -99.9 -99.9 -999.9 -9.9 -9.999 -99.9 -99.99 -9.99
2019/12/13 13:36 PST  -99.99 -99.99   12  218   12 -99.9 -99.9 -999.9 -9.9 -9.999 -99.9 -99.99 -9.99
2019/12/13 13:42 PST  -99.99 -99.99   11  223   13 -99.9 -99.9 -999.9 -9.9 -9.999 -99.9 -99.99 -9.99
2019/12/13 13:48 PST  -99.99 -99.99   11  225   13 -99.9 -99.9 -999.9 -9.9 -9.999 -99.9 -99.99 -9.99
2019/12/13 13:54 PST  -99.99 -99.99    9  222   11 -99.9 -99.9 -999.9 -9.9 -9.999 -99.9 -99.99 -9.99
2019/12/13 14:00 PST  -99.99 -99.99   10  223   11 -99.9 -99.9 -999.9 -9.9 -9.999 -99.9 -99.99 -9.99
2019/12/13 14:06 PST  -99.99 -99.99   11  223   12 -99.9 -99.9 -999.9 -9.9 -9.999 -99.9 -99.99 -9.99
2019/12/13 14:12 PST  -99.99 -99.99   11  222   12 -99.9 -99.9 -999.9 -9.9 -9.999 -99.9 -99.99 -9.99
2019/12/13 14:18 PST  -99.99 -99.99   10  227   11 -99.9 -99.9 -999.9 -9.9 -9.999 -99.9 -99.99 -9.99
2019/12/13 14:24 PST  -99.99 -99.99    7  233   11 -99.9 -99.9 -999.9 -9.9 -9.999 -99.9 -99.99 -9.99
2019/12/13 14:30 PST  -99.99 -99.99    7  228    8 -99.9 -99.9 -999.9 -9.9 -9.999 -99.9 -99.99 -9.99
2019/12/13 14:36 PST  -99.99 -99.99    7  223    7 -99.9 -99.9 -999.9 -9.9 -9.999 -99.9 -99.99 -9.99
2019/12/13 14:42 PST  -99.99 -99.99    4  228    7 -99.9 -99.9 -999.9 -9.9 -9.999 -99.9 -99.99 -9.99
2019/12/13 14:48 PST  -99.99 -99.99    4  238    6 -99.9 -99.9 -999.9 -9.9 -9.999 -99.9 -99.99 -9.99
2019/12/13 14:54 PST  -99.99 -99.99    6  231    6 -99.9 -99.9 -999.9 -9.9 -9.999 -99.9 -99.99 -9.99
2019/12/13 15:00 PST  -99.99 -99.99    7  228    8 -99.9 -99.9 -999.9 -9.9 -9.999 -99.9 -99.99 -9.99
2019/12/13 15:06 PST  -99.99 -99.99    3  237    7 -99.9 -99.9 -999.9 -9.9 -9.999 -99.9 -99.99 -9.99
2019/12/13 15:12 PST  -99.99 -99.99    3  271    4 -99.9 -99.9 -999.9 -9.9 -9.999 -99.9 -99.99 -9.99
2019/12/13 15:18 PST  -99.99 -99.99    5  326    6 -99.9 -99.9 -999.9 -9.9 -9.999 -99.9 -99.99 -9.99
2019/12/13 15:24 PST  -99.99 -99.99    6  331    7 -99.9 -99.9 -999.9 -9.9 -9.999 -99.9 -99.99 -9.99
2019/12/13 15:30 PST  -99.99 -99.99    7  327    8 -99.9 -99.9 -999.9 -9.9 -9.999 -99.9 -99.99 -9.99
2019/12/13 15:36 PST  -99.99 -99.99    7  318    8 -99.9 -99.9 -999.9 -9.9 -9.999 -99.9 -99.99 -9.99
2019/12/13 15:42 PST  -99.99 -99.99    7  325    9 -99.9 -99.9 -999.9 -9.9 -9.999 -99.9 -99.99 -9.99
2019/12/13 15:48 PST  -99.99 -99.99    8  325    9 -99.9 -99.9 -999.9 -9.9 -9.999 -99.9 -99.99 -9.99
2019/12/13 15:54 PST  -99.99 -99.99    8  320    8 -99.9 -99.9 -999.9 -9.9 -9.999 -99.9 -99.99 -9.99
2019/12/13 16:00 PST  -99.99 -99.99    6  329    8 -99.9 -99.9 -999.9 -9.9 -9.999 -99.9 -99.99 -9.99
2019/12/13 16:06 PST  -99.99 -99.99    6  321    7 -99.9 -99.9 -999.9 -9.9 -9.999 -99.9 -99.99 -9.99
2019/12/13 16:12 PST  -99.99 -99.99    5  324    6 -99.9 -99.9 -999.9 -9.9 -9.999 -99.9 -99.99 -9.99
2019/12/13 16:18 PST  -99.99 -99.99    5  318    6 -99.9 -99.9 -999.9 -9.9 -9.999 -99.9 -99.99 -9.99
2019/12/13 16:24 PST  -99.99 -99.99    6  323    7 -99.9 -99.9 -999.9 -9.9 -9.999 -99.9 -99.99 -9.99
2019/12/13 16:30 PST  -99.99 -99.99    4  323    5 -99.9 -99.9 -999.9 -9.9 -9.999 -99.9 -99.99 -9.99
2019/12/13 16:36 PST  -99.99 -99.99    4  315    5 -99.9 -99.9 -999.9 -9.9 -9.999 -99.9 -99.99 -9.99
2019/12/13 16:42 PST  -99.99 -99.99    5  332    6 -99.9 -99.9 -999.9 -9.9 -9.999 -99.9 -99.99 -9.99
2019/12/13 16:48 PST  -99.99 -99.99    6  316    6 -99.9 -99.9 -999.9 -9.9 -9.999 -99.9 -99.99 -9.99
2019/12/13 16:54 PST  -99.99 -99.99    7  321    7 -99.9 -99.9 -999.9 -9.9 -9.999 -99.9 -99.99 -9.99
2019/12/13 17:00 PST  -99.99 -99.99    6  324    7 -99.9 -99.9 -999.9 -9.9 -9.999 -99.9 -99.99 -9.99
2019/12/13 17:06 PST  -99.99 -99.99    7  322    8 -99.9 -99.9 -999.9 -9.9 -9.999 -99.9 -99.99 -9.99
2019/12/13 17:12 PST  -99.99 -99.99    6  329    7 -99.9 -99.9 -999.9 -9.9 -9.999 -99.9 -99.99 -9.99
2019/12/13 17:18 PST  -99.99 -99.99    6  325    8 -99.9 -99.9 -999.9 -9.9 -9.999 -99.9 -99.99 -9.99
2019/12/13 17:24 PST  -99.99 -99.99    3  334    6 -99.9 -99.9 -999.9 -9.9 -9.999 -99.9 -99.99 -9.99
2019/12/13 17:30 PST  -99.99 -99.99    4  337    5 -99.9 -99.9 -999.9 -9.9 -9.999 -99.9 -99.99 -9.99
2019/12/13 17:36 PST  -99.99 -99.99    3  345    5 -99.9 -99.9 -999.9 -9.9 -9.999 -99.9 -99.99 -9.99
2019/12/13 17:42 PST  -99.99 -99.99    2    3    4 -99.9 -99.9 -999.9 -9.9 -9.999 -99.9 -99.99 -9.99
2019/12/13 17:48 PST  -99.99 -99.99    2   11    3 -99.9 -99.9 -999.9 -9.9 -9.999 -99.9 -99.99 -9.99
2019/12/13 17:54 PST  -99.99 -99.99    1   15    2 -99.9 -99.9 -999.9 -9.9 -9.999 -99.9 -99.99 -9.99
2019/12/13 18:00 PST  -99.99 -99.99    1  346    1 -99.9 -99.9 -999.9 -9.9 -9.999 -99.9 -99.99 -9.99
2019/12/13 18:06 PST  -99.99 -99.99    0  345    0 -99.9 -99.9 -999.9 -9.9 -9.999 -99.9 -99.99 -9.99
2019/12/13 18:12 PST  -99.99 -99.99    1  272    2 -99.9 -99.9 -999.9 -9.9 -9.999 -99.9 -99.99 -9.99
2019/12/13 18:18 PST  -99.99 -99.99    2  285    2 -99.9 -99.9 -999.9 -9.9 -9.999 -99.9 -99.99 -9.99
2019/12/13 18:24 PST  -99.99 -99.99    2  299    3 -99.9 -99.9 -999.9 -9.9 -9.999 -99.9 -99.99 -9.99
2019/12/13 18:30 PST  -99.99 -99.99    1  259    3 -99.9 -99.9 -999.9 -9.9 -9.999 -99.9 -99.99 -9.99
2019/12/13 18:36 PST  -99.99 -99.99    0  204    1 -99.9 -99.9 -999.9 -9.9 -9.999 -99.9 -99.99 -9.99
2019/12/13 18:42 PST  -99.99 -99.99    1  354    2 -99.9 -99.9 -999.9 -9.9 -9.999 -99.9 -99.99 -9.99
2019/12/13 18:48 PST  -99.99 -99.99    2  357    3 -99.9 -99.9 -999.9 -9.9 -9.999 -99.9 -99.99 -9.99
2019/12/13 18:54 PST  -99.99 -99.99    2  359    3 -99.9 -99.9 -999.9 -9.9 -9.999 -99.9 -99.99 -9.99
2019/12/13 19:00 PST  -99.99 -99.99    1    6    3 -99.9 -99.9 -999.9 -9.9 -9.999 -99.9 -99.99 -9.99
2019/12/13 19:06 PST  -99.99 -99.99    0   73    2 -99.9 -99.9 -999.9 -9.9 -9.999 -99.9 -99.99 -9.99
2019/12/13 19:12 PST  -99.99 -99.99    0   74    1 -99.9 -99.9 -999.9 -9.9 -9.999 -99.9 -99.99 -9.99
2019/12/13 19:18 PST  -99.99 -99.99    1   87    1 -99.9 -99.9 -999.9 -9.9 -9.999 -99.9 -99.99 -9.99
2019/12/13 19:24 PST  -99.99 -99.99    1  134    2 -99.9 -99.9 -999.9 -9.9 -9.999 -99.9 -99.99 -9.99
2019/12/13 19:30 PST  -99.99 -99.99    1  147    2 -99.9 -99.9 -999.9 -9.9 -9.999 -99.9 -99.99 -9.99
2019/12/13 19:36 PST  -99.99 -99.99    1  123    1 -99.9 -99.9 -999.9 -9.9 -9.999 -99.9 -99.99 -9.99
2019/12/13 19:42 PST  -99.99 -99.99    1  107    1 -99.9 -99.9 -999.9 -9.9 -9.999 -99.9 -99.99 -9.99
2019/12/13 19:48 PST  -99.99 -99.99    0    4    1 -99.9 -99.9 -999.9 -9.9 -9.999 -99.9 -99.99 -9.99
2019/12/13 19:54 PST  -99.99 -99.99    0   19    1 -99.9 -99.9 -999.9 -9.9 -9.999 -99.9 -99.99 -9.99
2019/12/13 20:00 PST  -99.99 -99.99    1  331    1 -99.9 -99.9 -999.9 -9.9 -9.999 -99.9 -99.99 -9.99
2019/12/13 20:06 PST  -99.99 -99.99    1   10    2 -99.9 -99.9 -999.9 -9.9 -9.999 -99.9 -99.99 -9.99
2019/12/13 20:12 PST  -99.99 -99.99    1   47    2 -99.9 -99.9 -999.9 -9.9 -9.999 -99.9 -99.99 -9.99
2019/12/13 20:18 PST  -99.99 -99.99    3   96    4 -99.9 -99.9 -999.9 -9.9 -9.999 -99.9 -99.99 -9.99
2019/12/13 20:24 PST  -99.99 -99.99    3  111    4 -99.9 -99.9 -999.9 -9.9 -9.999 -99.9 -99.99 -9.99
2019/12/13 20:30 PST  -99.99 -99.99    4  117    4 -99.9 -99.9 -999.9 -9.9 -9.999 -99.9 -99.99 -9.99
2019/12/13 20:36 PST  -99.99 -99.99    3   92    4 -99.9 -99.9 -999.9 -9.9 -9.999 -99.9 -99.99 -9.99
2019/12/13 20:42 PST  -99.99 -99.99    4  100    4 -99.9 -99.9 -999.9 -9.9 -9.999 -99.9 -99.99 -9.99
2019/12/13 20:48 PST  -99.99 -99.99    3   93    4 -99.9 -99.9 -999.9 -9.9 -9.999 -99.9 -99.99 -9.99
2019/12/13 20:54 PST  -99.99 -99.99    2  101    4 -99.9 -99.9 -999.9 -9.9 -9.999 -99.9 -99.99 -9.99
2019/12/13 21:00 PST  -99.99 -99.99    4  106    4 -99.9 -99.9 -999.9 -9.9 -9.999 -99.9 -99.99 -9.99
2019/12/13 21:06 PST  -99.99 -99.99    3  113    4 -99.9 -99.9 -999.9 -9.9 -9.999 -99.9 -99.99 -9.99
2019/12/13 21:12 PST  -99.99 -99.99    4  120    4 -99.9 -99.9 -999.9 -9.9 -9.999 -99.9 -99.99 -9.99
2019/12/13 21:18 PST  -99.99 -99.99    4  126    5 -99.9 -99.9 -999.9 -9.9 -9.999 -99.9 -99.99 -9.99
2019/12/13 21:24 PST  -99.99 -99.99    3  116    4 -99.9 -99.9 -999.9 -9.9 -9.999 -99.9 -99.99 -9.99
2019/12/13 21:30 PST  -99.99 -99.99    3  124    4 -99.9 -99.9 -999.9 -9.9 -9.999 -99.9 -99.99 -9.99
2019/12/13 21:36 PST  -99.99 -99.99    2  113    3 -99.9 -99.9 -999.9 -9.9 -9.999 -99.9 -99.99 -9.99
2019/12/13 21:42 PST  -99.99 -99.99    2  115    3 -99.9 -99.9 -999.9 -9.9 -9.999 -99.9 -99.99 -9.99
2019/12/13 21:48 PST  -99.99 -99.99    3  122    4 -99.9 -99.9 -999.9 -9.9 -9.999 -99.9 -99.99 -9.99
2019/12/13 21:54 PST  -99.99 -99.99    3  117    4 -99.9 -99.9 -999.9 -9.9 -9.999 -99.9 -99.99 -9.99
2019/12/13 22:00 PST  -99.99 -99.99    2  114    3 -99.9 -99.9 -999.9 -9.9 -9.999 -99.9 -99.99 -9.99
2019/12/13 22:06 PST  -99.99 -99.99    0  261    3 -99.9 -99.9 -999.9 -9.9 -9.999 -99.9 -99.99 -9.99
2019/12/13 22:12 PST  -99.99 -99.99    1  267    2 -99.9 -99.9 -999.9 -9.9 -9.999 -99.9 -99.99 -9.99
2019/12/13 22:18 PST  -99.99 -99.99    0  172    1 -99.9 -99.9 -999.9 -9.9 -9.999 -99.9 -99.99 -9.99
2019/12/13 22:24 PST  -99.99 -99.99    2  159    3 -99.9 -99.9 -999.9 -9.9 -9.999 -99.9 -99.99 -9.99
2019/12/13 22:30 PST  -99.99 -99.99    1  163    3 -99.9 -99.9 -999.9 -9.9 -9.999 -99.9 -99.99 -9.99
2019/12/13 22:36 PST  -99.99 -99.99    0    0    0 -99.9 -99.9 -999.9 -9.9 -9.999 -99.9 -99.99 -9.99
2019/12/13 22:42 PST  -99.99 -99.99    0  355    1 -99.9 -99.9 -999.9 -9.9 -9.999 -99.9 -99.99 -9.99
2019/12/13 22:48 PST  -99.99 -99.99    2  302    3 -99.9 -99.9 -999.9 -9.9 -9.999 -99.9 -99.99 -9.99
2019/12/13 22:54 PST  -99.99 -99.99    1  280    3 -99.9 -99.9 -999.9 -9.9 -9.999 -99.9 -99.99 -9.99
2019/12/13 23:00 PST  -99.99 -99.99    0  306    1 -99.9 -99.9 -999.9 -9.9 -9.999 -99.9 -99.99 -9.99
2019/12/13 23:06 PST  -99.99 -99.99    1  191    3 -99.9 -99.9 -999.9 -9.9 -9.999 -99.9 -99.99 -9.99
2019/12/13 23:12 PST  -99.99 -99.99    2  176    3 -99.9 -99.9 -999.9 -9.9 -9.999 -99.9 -99.99 -9.99
2019/12/13 23:18 PST  -99.99 -99.99    1  248    2 -99.9 -99.9 -999.9 -9.9 -9.999 -99.9 -99.99 -9.99
2019/12/13 23:24 PST  -99.99 -99.99    1  205    1 -99.9 -99.9 -999.9 -9.9 -9.999 -99.9 -99.99 -9.99
2019/12/13 23:30 PST  -99.99 -99.99    2  253    2 -99.9 -99.9 -999.9 -9.9 -9.999 -99.9 -99.99 -9.99
2019/12/13 23:36 PST  -99.99 -99.99    2  224    2 -99.9 -99.9 -999.9 -9.9 -9.999 -99.9 -99.99 -9.99
2019/12/13 23:42 PST  -99.99 -99.99    2  178    3 -99.9 -99.9 -999.9 -9.9 -9.999 -99.9 -99.99 -9.99
2019/12/13 23:48 PST  -99.99 -99.99    3  152    4 -99.9 -99.9 -999.9 -9.9 -9.999 -99.9 -99.99 -9.99
2019/12/13 23:54 PST  -99.99 -99.99    3  134    4 -99.9 -99.9 -999.9 -9.9 -9.999 -99.9 -99.99 -9.99
2019/12/14 00:00 PST  -99.99 -99.99    4  124    4 -99.9 -99.9 -999.9 -9.9 -9.999 -99.9 -99.99 -9.99
2019/12/14 00:06 PST  -99.99 -99.99    4  127    5 -99.9 -99.9 -999.9 -9.9 -9.999 -99.9 -99.99 -9.99
2019/12/14 00:12 PST  -99.99 -99.99    4  126    5 -99.9 -99.9 -999.9 -9.9 -9.999 -99.9 -99.99 -9.99
2019/12/14 00:18 PST  -99.99 -99.99    4  118    5 -99.9 -99.9 -999.9 -9.9 -9.999 -99.9 -99.99 -9.99
2019/12/14 00:24 PST  -99.99 -99.99    3   90    4 -99.9 -99.9 -999.9 -9.9 -9.999 -99.9 -99.99 -9.99
2019/12/14 00:30 PST  -99.99 -99.99    3   88    5 -99.9 -99.9 -999.9 -9.9 -9.999 -99.9 -99.99 -9.99
2019/12/14 00:36 PST  -99.99 -99.99    2   91    4 -99.9 -99.9 -999.9 -9.9 -9.999 -99.9 -99.99 -9.99
2019/12/14 00:42 PST  -99.99 -99.99    3  100    4 -99.9 -99.9 -999.9 -9.9 -9.999 -99.9 -99.99 -9.99
2019/12/14 00:48 PST  -99.99 -99.99    3   98    4 -99.9 -99.9 -999.9 -9.9 -9.999 -99.9 -99.99 -9.99
2019/12/14 00:54 PST  -99.99 -99.99    3  102    4 -99.9 -99.9 -999.9 -9.9 -9.999 -99.9 -99.99 -9.99
2019/12/14 01:00 PST  -99.99 -99.99    5  136    5 -99.9 -99.9 -999.9 -9.9 -9.999 -99.9 -99.99 -9.99
2019/12/14 01:06 PST  -99.99 -99.99    5  163    6 -99.9 -99.9 -999.9 -9.9 -9.999 -99.9 -99.99 -9.99
2019/12/14 01:12 PST  -99.99 -99.99    6  168    7 -99.9 -99.9 -999.9 -9.9 -9.999 -99.9 -99.99 -9.99
2019/12/14 01:18 PST  -99.99 -99.99    8  167    8 -99.9 -99.9 -999.9 -9.9 -9.999 -99.9 -99.99 -9.99
2019/12/14 01:24 PST  -99.99 -99.99    7  179    8 -99.9 -99.9 -999.9 -9.9 -9.999 -99.9 -99.99 -9.99
2019/12/14 01:30 PST  -99.99 -99.99    7  190    9 -99.9 -99.9 -999.9 -9.9 -9.999 -99.9 -99.99 -9.99
2019/12/14 01:36 PST  -99.99 -99.99    6  195    7 -99.9 -99.9 -999.9 -9.9 -9.999 -99.9 -99.99 -9.99
2019/12/14 01:42 PST  -99.99 -99.99    6  184    6 -99.9 -99.9 -999.9 -9.9 -9.999 -99.9 -99.99 -9.99
2019/12/14 01:48 PST  -99.99 -99.99    6  183    6 -99.9 -99.9 -999.9 -9.9 -9.999 -99.9 -99.99 -9.99
2019/12/14 01:54 PST  -99.99 -99.99    6  177    7 -99.9 -99.9 -999.9 -9.9 -9.999 -99.9 -99.99 -9.99